<?xml version="1.0" encoding="utf-8"?>
<gpx xmlns:xsi="http://www.w3.org/2001/XMLSchema-instance" xmlns:xsd="http://www.w3.org/2001/XMLSchema" version="1.1" creator="Shapelink.com" xmlns="http://www.topografix.com/GPX/1/1" xmlns:gpxtpx="http://www.garmin.com/xmlschemas/TrackPointExtension/v1">
  <metadata>
    <name>Löpning 14.77 km, 2011-08-28</name>
    <desc></desc>
    <author><name>Alexander Engvall</name></author> 
    <time>2011-08-28T18:13:16Z</time>
  </metadata>
  <trk>
    <name>Löpning 14.77 km, 2011-08-28</name>
    <trkseg>
      <trkpt lat="59.3819245" lon="17.9697877">
        <ele>15.5184</ele>
        <time>2011-08-28T18:13:16Z</time>
      </trkpt>
      <trkpt lat="59.3819439" lon="17.9697942">
        <ele>15.999</ele>
        <time>2011-08-28T18:13:17Z</time>
      </trkpt>
      <trkpt lat="59.3820315" lon="17.9698543">
        <ele>16.4797</ele>
        <time>2011-08-28T18:13:20Z</time>
      </trkpt>
      <trkpt lat="59.3822062" lon="17.970022">
        <ele>17.4412</ele>
        <time>2011-08-28T18:13:25Z</time>
      </trkpt>
      <trkpt lat="59.3823776" lon="17.9701737">
        <ele>18.4023</ele>
        <time>2011-08-28T18:13:30Z</time>
      </trkpt>
      <trkpt lat="59.38255" lon="17.9702902">
        <ele>19.8444</ele>
        <time>2011-08-28T18:13:35Z</time>
      </trkpt>
      <trkpt lat="59.3826745" lon="17.9703296">
        <ele>20.325</ele>
        <time>2011-08-28T18:13:39Z</time>
      </trkpt>
      <trkpt lat="59.3829174" lon="17.9703392">
        <ele>23.209</ele>
        <time>2011-08-28T18:13:46Z</time>
      </trkpt>
      <trkpt lat="59.3830055" lon="17.9703251">
        <ele>23.6896</ele>
        <time>2011-08-28T18:13:49Z</time>
      </trkpt>
      <trkpt lat="59.3830765" lon="17.9702892">
        <ele>25.1317</ele>
        <time>2011-08-28T18:13:52Z</time>
      </trkpt>
      <trkpt lat="59.3831977" lon="17.9702749">
        <ele>28.0155</ele>
        <time>2011-08-28T18:13:56Z</time>
      </trkpt>
      <trkpt lat="59.3833156" lon="17.9702108">
        <ele>30.8995</ele>
        <time>2011-08-28T18:14:01Z</time>
      </trkpt>
      <trkpt lat="59.3833825" lon="17.9701849">
        <ele>32.3416</ele>
        <time>2011-08-28T18:14:03Z</time>
      </trkpt>
      <trkpt lat="59.383488" lon="17.9700283">
        <ele>36.1868</ele>
        <time>2011-08-28T18:14:08Z</time>
      </trkpt>
      <trkpt lat="59.3835857" lon="17.9699189">
        <ele>38.5901</ele>
        <time>2011-08-28T18:14:12Z</time>
      </trkpt>
      <trkpt lat="59.3836272" lon="17.9697413">
        <ele>41.9547</ele>
        <time>2011-08-28T18:14:16Z</time>
      </trkpt>
      <trkpt lat="59.3837052" lon="17.9694621">
        <ele>47.2418</ele>
        <time>2011-08-28T18:14:22Z</time>
      </trkpt>
      <trkpt lat="59.3837771" lon="17.9692534">
        <ele>48.2034</ele>
        <time>2011-08-28T18:14:26Z</time>
      </trkpt>
      <trkpt lat="59.3838171" lon="17.9691606">
        <ele>47.2418</ele>
        <time>2011-08-28T18:14:28Z</time>
      </trkpt>
      <trkpt lat="59.3839743" lon="17.9689952">
        <ele>47.7225</ele>
        <time>2011-08-28T18:14:32Z</time>
      </trkpt>
      <trkpt lat="59.3840708" lon="17.9689172">
        <ele>46.2806</ele>
        <time>2011-08-28T18:14:36Z</time>
      </trkpt>
      <trkpt lat="59.3840896" lon="17.9689027">
        <ele>45.7999</ele>
        <time>2011-08-28T18:14:37Z</time>
      </trkpt>
      <trkpt lat="59.3842368" lon="17.9688815">
        <ele>46.2806</ele>
        <time>2011-08-28T18:14:43Z</time>
      </trkpt>
      <trkpt lat="59.3844308" lon="17.9688777">
        <ele>44.358</ele>
        <time>2011-08-28T18:14:49Z</time>
      </trkpt>
      <trkpt lat="59.3846108" lon="17.9689834">
        <ele>42.916</ele>
        <time>2011-08-28T18:14:54Z</time>
      </trkpt>
      <trkpt lat="59.384719" lon="17.9690615">
        <ele>43.8773</ele>
        <time>2011-08-28T18:14:58Z</time>
      </trkpt>
      <trkpt lat="59.3848526" lon="17.9691348">
        <ele>43.8773</ele>
        <time>2011-08-28T18:15:03Z</time>
      </trkpt>
      <trkpt lat="59.3850265" lon="17.9692162">
        <ele>43.8773</ele>
        <time>2011-08-28T18:15:07Z</time>
      </trkpt>
      <trkpt lat="59.3851634" lon="17.9692622">
        <ele>44.358</ele>
        <time>2011-08-28T18:15:11Z</time>
      </trkpt>
      <trkpt lat="59.3852415" lon="17.9692864">
        <ele>43.8773</ele>
        <time>2011-08-28T18:15:14Z</time>
      </trkpt>
      <trkpt lat="59.385379" lon="17.9692844">
        <ele>40.9934</ele>
        <time>2011-08-28T18:15:19Z</time>
      </trkpt>
      <trkpt lat="59.3854917" lon="17.9692504">
        <ele>40.9934</ele>
        <time>2011-08-28T18:15:22Z</time>
      </trkpt>
      <trkpt lat="59.385596" lon="17.9691988">
        <ele>40.9934</ele>
        <time>2011-08-28T18:15:26Z</time>
      </trkpt>
      <trkpt lat="59.3857341" lon="17.9691072">
        <ele>39.5513</ele>
        <time>2011-08-28T18:15:31Z</time>
      </trkpt>
      <trkpt lat="59.3858918" lon="17.9690916">
        <ele>38.5901</ele>
        <time>2011-08-28T18:15:35Z</time>
      </trkpt>
      <trkpt lat="59.3860833" lon="17.9690098">
        <ele>37.6287</ele>
        <time>2011-08-28T18:15:40Z</time>
      </trkpt>
      <trkpt lat="59.3861892" lon="17.9688695">
        <ele>38.1094</ele>
        <time>2011-08-28T18:15:43Z</time>
      </trkpt>
      <trkpt lat="59.3862606" lon="17.9686766">
        <ele>36.1868</ele>
        <time>2011-08-28T18:15:47Z</time>
      </trkpt>
      <trkpt lat="59.38632" lon="17.9684758">
        <ele>37.6287</ele>
        <time>2011-08-28T18:15:51Z</time>
      </trkpt>
      <trkpt lat="59.3864338" lon="17.9682385">
        <ele>39.0707</ele>
        <time>2011-08-28T18:15:57Z</time>
      </trkpt>
      <trkpt lat="59.3865222" lon="17.9680972">
        <ele>38.1094</ele>
        <time>2011-08-28T18:16:01Z</time>
      </trkpt>
      <trkpt lat="59.3866181" lon="17.9679511">
        <ele>38.1094</ele>
        <time>2011-08-28T18:16:05Z</time>
      </trkpt>
      <trkpt lat="59.3866376" lon="17.9679107">
        <ele>38.1094</ele>
        <time>2011-08-28T18:16:06Z</time>
      </trkpt>
      <trkpt lat="59.3868419" lon="17.9677567">
        <ele>37.6287</ele>
        <time>2011-08-28T18:16:13Z</time>
      </trkpt>
      <trkpt lat="59.3869594" lon="17.9676848">
        <ele>36.6675</ele>
        <time>2011-08-28T18:16:17Z</time>
      </trkpt>
      <trkpt lat="59.3869872" lon="17.9676444">
        <ele>36.1868</ele>
        <time>2011-08-28T18:16:18Z</time>
      </trkpt>
      <trkpt lat="59.3871462" lon="17.9675517">
        <ele>35.7061</ele>
        <time>2011-08-28T18:16:23Z</time>
      </trkpt>
      <trkpt lat="59.387298" lon="17.967506">
        <ele>35.2255</ele>
        <time>2011-08-28T18:16:27Z</time>
      </trkpt>
      <trkpt lat="59.3875199" lon="17.967448">
        <ele>34.2642</ele>
        <time>2011-08-28T18:16:33Z</time>
      </trkpt>
      <trkpt lat="59.3876815" lon="17.9673824">
        <ele>34.2642</ele>
        <time>2011-08-28T18:16:37Z</time>
      </trkpt>
      <trkpt lat="59.3878908" lon="17.9673034">
        <ele>34.2642</ele>
        <time>2011-08-28T18:16:43Z</time>
      </trkpt>
      <trkpt lat="59.3880883" lon="17.967257">
        <ele>37.6287</ele>
        <time>2011-08-28T18:16:50Z</time>
      </trkpt>
      <trkpt lat="59.3882244" lon="17.9672823">
        <ele>37.6287</ele>
        <time>2011-08-28T18:16:53Z</time>
      </trkpt>
      <trkpt lat="59.3883746" lon="17.9672513">
        <ele>38.1094</ele>
        <time>2011-08-28T18:16:57Z</time>
      </trkpt>
      <trkpt lat="59.388559" lon="17.9671179">
        <ele>34.7449</ele>
        <time>2011-08-28T18:17:02Z</time>
      </trkpt>
      <trkpt lat="59.388688" lon="17.9669564">
        <ele>31.8607</ele>
        <time>2011-08-28T18:17:06Z</time>
      </trkpt>
      <trkpt lat="59.3887896" lon="17.9667823">
        <ele>30.4188</ele>
        <time>2011-08-28T18:17:10Z</time>
      </trkpt>
      <trkpt lat="59.3889123" lon="17.966483">
        <ele>29.4575</ele>
        <time>2011-08-28T18:17:15Z</time>
      </trkpt>
      <trkpt lat="59.3890165" lon="17.9662722">
        <ele>28.4962</ele>
        <time>2011-08-28T18:17:18Z</time>
      </trkpt>
      <trkpt lat="59.3891212" lon="17.9659073">
        <ele>27.0543</ele>
        <time>2011-08-28T18:17:23Z</time>
      </trkpt>
      <trkpt lat="59.3891335" lon="17.9658284">
        <ele>27.5349</ele>
        <time>2011-08-28T18:17:24Z</time>
      </trkpt>
      <trkpt lat="59.3891554" lon="17.965677">
        <ele>26.0929</ele>
        <time>2011-08-28T18:17:26Z</time>
      </trkpt>
      <trkpt lat="59.389201" lon="17.9654761">
        <ele>23.209</ele>
        <time>2011-08-28T18:17:29Z</time>
      </trkpt>
      <trkpt lat="59.3892437" lon="17.9653521">
        <ele>20.8057</ele>
        <time>2011-08-28T18:17:31Z</time>
      </trkpt>
      <trkpt lat="59.3893718" lon="17.9651021">
        <ele>16.4797</ele>
        <time>2011-08-28T18:17:36Z</time>
      </trkpt>
      <trkpt lat="59.3894599" lon="17.9650035">
        <ele>15.0377</ele>
        <time>2011-08-28T18:17:39Z</time>
      </trkpt>
      <trkpt lat="59.3896179" lon="17.9647907">
        <ele>15.0377</ele>
        <time>2011-08-28T18:17:44Z</time>
      </trkpt>
      <trkpt lat="59.3896489" lon="17.9647447">
        <ele>15.0377</ele>
        <time>2011-08-28T18:17:45Z</time>
      </trkpt>
      <trkpt lat="59.3897949" lon="17.9645229">
        <ele>12.6344</ele>
        <time>2011-08-28T18:17:50Z</time>
      </trkpt>
      <trkpt lat="59.3899265" lon="17.9642965">
        <ele>12.6344</ele>
        <time>2011-08-28T18:17:55Z</time>
      </trkpt>
      <trkpt lat="59.3900784" lon="17.9640541">
        <ele>11.6732</ele>
        <time>2011-08-28T18:18:00Z</time>
      </trkpt>
      <trkpt lat="59.3902254" lon="17.9638873">
        <ele>11.6732</ele>
        <time>2011-08-28T18:18:04Z</time>
      </trkpt>
      <trkpt lat="59.390352" lon="17.9637196">
        <ele>12.6344</ele>
        <time>2011-08-28T18:18:08Z</time>
      </trkpt>
      <trkpt lat="59.3904601" lon="17.9635735">
        <ele>13.1151</ele>
        <time>2011-08-28T18:18:12Z</time>
      </trkpt>
      <trkpt lat="59.3905511" lon="17.9634625">
        <ele>14.0764</ele>
        <time>2011-08-28T18:18:15Z</time>
      </trkpt>
      <trkpt lat="59.3906677" lon="17.9633046">
        <ele>14.0764</ele>
        <time>2011-08-28T18:18:19Z</time>
      </trkpt>
      <trkpt lat="59.39075" lon="17.9631875">
        <ele>15.5184</ele>
        <time>2011-08-28T18:18:22Z</time>
      </trkpt>
      <trkpt lat="59.3909046" lon="17.9629384">
        <ele>17.9218</ele>
        <time>2011-08-28T18:18:28Z</time>
      </trkpt>
      <trkpt lat="59.3909691" lon="17.9628316">
        <ele>18.4023</ele>
        <time>2011-08-28T18:18:31Z</time>
      </trkpt>
      <trkpt lat="59.3910885" lon="17.962686">
        <ele>15.999</ele>
        <time>2011-08-28T18:18:36Z</time>
      </trkpt>
      <trkpt lat="59.3911176" lon="17.9626613">
        <ele>15.999</ele>
        <time>2011-08-28T18:18:37Z</time>
      </trkpt>
      <trkpt lat="59.391261" lon="17.9624079">
        <ele>15.5184</ele>
        <time>2011-08-28T18:18:43Z</time>
      </trkpt>
      <trkpt lat="59.391349" lon="17.9621199">
        <ele>18.4023</ele>
        <time>2011-08-28T18:18:49Z</time>
      </trkpt>
      <trkpt lat="59.391447" lon="17.9618461">
        <ele>19.8444</ele>
        <time>2011-08-28T18:18:54Z</time>
      </trkpt>
      <trkpt lat="59.3915605" lon="17.9615142">
        <ele>21.767</ele>
        <time>2011-08-28T18:19:00Z</time>
      </trkpt>
      <trkpt lat="59.3916306" lon="17.9612336">
        <ele>25.1317</ele>
        <time>2011-08-28T18:19:05Z</time>
      </trkpt>
      <trkpt lat="59.3916402" lon="17.9609707">
        <ele>25.6123</ele>
        <time>2011-08-28T18:19:09Z</time>
      </trkpt>
      <trkpt lat="59.3916397" lon="17.9606882">
        <ele>25.6123</ele>
        <time>2011-08-28T18:19:13Z</time>
      </trkpt>
      <trkpt lat="59.3916614" lon="17.9603538">
        <ele>23.6896</ele>
        <time>2011-08-28T18:19:18Z</time>
      </trkpt>
      <trkpt lat="59.3916656" lon="17.9602906">
        <ele>22.7283</ele>
        <time>2011-08-28T18:19:19Z</time>
      </trkpt>
      <trkpt lat="59.3918759" lon="17.9600224">
        <ele>16.4797</ele>
        <time>2011-08-28T18:19:25Z</time>
      </trkpt>
      <trkpt lat="59.3919534" lon="17.9599364">
        <ele>15.5184</ele>
        <time>2011-08-28T18:19:27Z</time>
      </trkpt>
      <trkpt lat="59.3920432" lon="17.9598593">
        <ele>13.5958</ele>
        <time>2011-08-28T18:19:29Z</time>
      </trkpt>
      <trkpt lat="59.392227" lon="17.9596722">
        <ele>11.1925</ele>
        <time>2011-08-28T18:19:34Z</time>
      </trkpt>
      <trkpt lat="59.3922577" lon="17.9596368">
        <ele>10.2312</ele>
        <time>2011-08-28T18:19:35Z</time>
      </trkpt>
      <trkpt lat="59.3923136" lon="17.9595619">
        <ele>9.2699</ele>
        <time>2011-08-28T18:19:37Z</time>
      </trkpt>
      <trkpt lat="59.3924398" lon="17.95949">
        <ele>9.75061</ele>
        <time>2011-08-28T18:19:41Z</time>
      </trkpt>
      <trkpt lat="59.3925813" lon="17.9597039">
        <ele>10.2312</ele>
        <time>2011-08-28T18:19:46Z</time>
      </trkpt>
      <trkpt lat="59.3927202" lon="17.9599678">
        <ele>10.2312</ele>
        <time>2011-08-28T18:19:51Z</time>
      </trkpt>
      <trkpt lat="59.3928716" lon="17.9603078">
        <ele>12.6344</ele>
        <time>2011-08-28T18:19:57Z</time>
      </trkpt>
      <trkpt lat="59.393017" lon="17.9606343">
        <ele>12.6344</ele>
        <time>2011-08-28T18:20:03Z</time>
      </trkpt>
      <trkpt lat="59.3931743" lon="17.9610202">
        <ele>14.0764</ele>
        <time>2011-08-28T18:20:10Z</time>
      </trkpt>
      <trkpt lat="59.3932912" lon="17.9613516">
        <ele>16.9604</ele>
        <time>2011-08-28T18:20:16Z</time>
      </trkpt>
      <trkpt lat="59.3933817" lon="17.9615283">
        <ele>17.4412</ele>
        <time>2011-08-28T18:20:20Z</time>
      </trkpt>
      <trkpt lat="59.3934497" lon="17.9617505">
        <ele>19.3638</ele>
        <time>2011-08-28T18:20:24Z</time>
      </trkpt>
      <trkpt lat="59.3934828" lon="17.9619588">
        <ele>21.2864</ele>
        <time>2011-08-28T18:20:28Z</time>
      </trkpt>
      <trkpt lat="59.3935429" lon="17.9623344">
        <ele>26.5736</ele>
        <time>2011-08-28T18:20:35Z</time>
      </trkpt>
      <trkpt lat="59.3935468" lon="17.9623867">
        <ele>26.5736</ele>
        <time>2011-08-28T18:20:36Z</time>
      </trkpt>
      <trkpt lat="59.3936524" lon="17.9626057">
        <ele>28.4962</ele>
        <time>2011-08-28T18:20:41Z</time>
      </trkpt>
      <trkpt lat="59.3937807" lon="17.9628697">
        <ele>29.9381</ele>
        <time>2011-08-28T18:20:46Z</time>
      </trkpt>
      <trkpt lat="59.3938951" lon="17.9631289">
        <ele>35.2255</ele>
        <time>2011-08-28T18:20:51Z</time>
      </trkpt>
      <trkpt lat="59.3939945" lon="17.9634224">
        <ele>37.1481</ele>
        <time>2011-08-28T18:20:56Z</time>
      </trkpt>
      <trkpt lat="59.3941026" lon="17.9636489">
        <ele>42.4354</ele>
        <time>2011-08-28T18:21:01Z</time>
      </trkpt>
      <trkpt lat="59.394153" lon="17.9637131">
        <ele>41.9547</ele>
        <time>2011-08-28T18:21:03Z</time>
      </trkpt>
      <trkpt lat="59.3942918" lon="17.9636867">
        <ele>39.0707</ele>
        <time>2011-08-28T18:21:09Z</time>
      </trkpt>
      <trkpt lat="59.3944302" lon="17.9636569">
        <ele>38.1094</ele>
        <time>2011-08-28T18:21:14Z</time>
      </trkpt>
      <trkpt lat="59.3945544" lon="17.9636384">
        <ele>38.5901</ele>
        <time>2011-08-28T18:21:18Z</time>
      </trkpt>
      <trkpt lat="59.394729" lon="17.9636921">
        <ele>36.6675</ele>
        <time>2011-08-28T18:21:24Z</time>
      </trkpt>
      <trkpt lat="59.3949034" lon="17.9637602">
        <ele>35.7061</ele>
        <time>2011-08-28T18:21:30Z</time>
      </trkpt>
      <trkpt lat="59.3949591" lon="17.9637859">
        <ele>35.2255</ele>
        <time>2011-08-28T18:21:32Z</time>
      </trkpt>
      <trkpt lat="59.3950999" lon="17.9638883">
        <ele>35.2255</ele>
        <time>2011-08-28T18:21:37Z</time>
      </trkpt>
      <trkpt lat="59.3951626" lon="17.9639477">
        <ele>34.2642</ele>
        <time>2011-08-28T18:21:39Z</time>
      </trkpt>
      <trkpt lat="59.3953213" lon="17.9640229">
        <ele>33.7834</ele>
        <time>2011-08-28T18:21:44Z</time>
      </trkpt>
      <trkpt lat="59.3954862" lon="17.9640554">
        <ele>31.8607</ele>
        <time>2011-08-28T18:21:49Z</time>
      </trkpt>
      <trkpt lat="59.395634" lon="17.9640651">
        <ele>31.3801</ele>
        <time>2011-08-28T18:21:53Z</time>
      </trkpt>
      <trkpt lat="59.3956702" lon="17.9640608">
        <ele>30.8995</ele>
        <time>2011-08-28T18:21:54Z</time>
      </trkpt>
      <trkpt lat="59.3958128" lon="17.9642214">
        <ele>30.8995</ele>
        <time>2011-08-28T18:21:59Z</time>
      </trkpt>
      <trkpt lat="59.3959338" lon="17.9644183">
        <ele>32.3416</ele>
        <time>2011-08-28T18:22:04Z</time>
      </trkpt>
      <trkpt lat="59.396027" lon="17.9646781">
        <ele>35.7061</ele>
        <time>2011-08-28T18:22:09Z</time>
      </trkpt>
      <trkpt lat="59.3960438" lon="17.9647265">
        <ele>37.1481</ele>
        <time>2011-08-28T18:22:10Z</time>
      </trkpt>
      <trkpt lat="59.396136" lon="17.9650889">
        <ele>39.5513</ele>
        <time>2011-08-28T18:22:16Z</time>
      </trkpt>
      <trkpt lat="59.3962236" lon="17.9654411">
        <ele>45.7999</ele>
        <time>2011-08-28T18:22:22Z</time>
      </trkpt>
      <trkpt lat="59.396252" lon="17.9658221">
        <ele>46.2806</ele>
        <time>2011-08-28T18:22:28Z</time>
      </trkpt>
      <trkpt lat="59.396208" lon="17.9661091">
        <ele>46.7612</ele>
        <time>2011-08-28T18:22:32Z</time>
      </trkpt>
      <trkpt lat="59.3961525" lon="17.9664373">
        <ele>46.7612</ele>
        <time>2011-08-28T18:22:37Z</time>
      </trkpt>
      <trkpt lat="59.3960417" lon="17.9668287">
        <ele>45.3192</ele>
        <time>2011-08-28T18:22:43Z</time>
      </trkpt>
      <trkpt lat="59.3959438" lon="17.9670214">
        <ele>43.8773</ele>
        <time>2011-08-28T18:22:47Z</time>
      </trkpt>
      <trkpt lat="59.3958424" lon="17.9672648">
        <ele>41.9547</ele>
        <time>2011-08-28T18:22:52Z</time>
      </trkpt>
      <trkpt lat="59.3957185" lon="17.9675264">
        <ele>38.5901</ele>
        <time>2011-08-28T18:22:57Z</time>
      </trkpt>
      <trkpt lat="59.3955849" lon="17.9677568">
        <ele>34.7449</ele>
        <time>2011-08-28T18:23:02Z</time>
      </trkpt>
      <trkpt lat="59.3954302" lon="17.9680898">
        <ele>31.3801</ele>
        <time>2011-08-28T18:23:08Z</time>
      </trkpt>
      <trkpt lat="59.3953512" lon="17.9683303">
        <ele>29.4575</ele>
        <time>2011-08-28T18:23:12Z</time>
      </trkpt>
      <trkpt lat="59.3953523" lon="17.9686544">
        <ele>30.4188</ele>
        <time>2011-08-28T18:23:17Z</time>
      </trkpt>
      <trkpt lat="59.3954465" lon="17.9689664">
        <ele>33.3029</ele>
        <time>2011-08-28T18:23:23Z</time>
      </trkpt>
      <trkpt lat="59.3954926" lon="17.9693086">
        <ele>33.3029</ele>
        <time>2011-08-28T18:23:28Z</time>
      </trkpt>
      <trkpt lat="59.3954879" lon="17.9696142">
        <ele>31.3801</ele>
        <time>2011-08-28T18:23:32Z</time>
      </trkpt>
      <trkpt lat="59.3955045" lon="17.9700038">
        <ele>31.3801</ele>
        <time>2011-08-28T18:23:37Z</time>
      </trkpt>
      <trkpt lat="59.395479" lon="17.9702667">
        <ele>31.3801</ele>
        <time>2011-08-28T18:23:41Z</time>
      </trkpt>
      <trkpt lat="59.3954227" lon="17.9704541">
        <ele>29.9381</ele>
        <time>2011-08-28T18:23:44Z</time>
      </trkpt>
      <trkpt lat="59.3952762" lon="17.9706762">
        <ele>28.0155</ele>
        <time>2011-08-28T18:23:49Z</time>
      </trkpt>
      <trkpt lat="59.3951487" lon="17.9708602">
        <ele>26.0929</ele>
        <time>2011-08-28T18:23:53Z</time>
      </trkpt>
      <trkpt lat="59.394972" lon="17.9710421">
        <ele>23.209</ele>
        <time>2011-08-28T18:23:58Z</time>
      </trkpt>
      <trkpt lat="59.3948117" lon="17.9711797">
        <ele>23.6896</ele>
        <time>2011-08-28T18:24:03Z</time>
      </trkpt>
      <trkpt lat="59.3946441" lon="17.9713066">
        <ele>24.1703</ele>
        <time>2011-08-28T18:24:07Z</time>
      </trkpt>
      <trkpt lat="59.3945121" lon="17.9713884">
        <ele>23.209</ele>
        <time>2011-08-28T18:24:10Z</time>
      </trkpt>
      <trkpt lat="59.3943054" lon="17.9714399">
        <ele>22.7283</ele>
        <time>2011-08-28T18:24:15Z</time>
      </trkpt>
      <trkpt lat="59.3942072" lon="17.9714564">
        <ele>20.325</ele>
        <time>2011-08-28T18:24:18Z</time>
      </trkpt>
      <trkpt lat="59.3940463" lon="17.9713773">
        <ele>15.5184</ele>
        <time>2011-08-28T18:24:23Z</time>
      </trkpt>
      <trkpt lat="59.3939215" lon="17.9711855">
        <ele>11.1925</ele>
        <time>2011-08-28T18:24:28Z</time>
      </trkpt>
      <trkpt lat="59.3938447" lon="17.9709809">
        <ele>7.82788</ele>
        <time>2011-08-28T18:24:32Z</time>
      </trkpt>
      <trkpt lat="59.3937667" lon="17.9706917">
        <ele>4.94385</ele>
        <time>2011-08-28T18:24:37Z</time>
      </trkpt>
      <trkpt lat="59.3936307" lon="17.9704676">
        <ele>4.94385</ele>
        <time>2011-08-28T18:24:42Z</time>
      </trkpt>
      <trkpt lat="59.3934901" lon="17.9703135">
        <ele>2.06006</ele>
        <time>2011-08-28T18:24:47Z</time>
      </trkpt>
      <trkpt lat="59.3933403" lon="17.9702625">
        <ele>0</ele>
        <time>2011-08-28T18:24:51Z</time>
      </trkpt>
      <trkpt lat="59.3931531" lon="17.9701755">
        <ele>0</ele>
        <time>2011-08-28T18:24:56Z</time>
      </trkpt>
      <trkpt lat="59.3930187" lon="17.9700091">
        <ele>0</ele>
        <time>2011-08-28T18:25:00Z</time>
      </trkpt>
      <trkpt lat="59.3929248" lon="17.9698443">
        <ele>0.137451</ele>
        <time>2011-08-28T18:25:03Z</time>
      </trkpt>
      <trkpt lat="59.3928557" lon="17.9694498">
        <ele>2.06006</ele>
        <time>2011-08-28T18:25:09Z</time>
      </trkpt>
      <trkpt lat="59.3929165" lon="17.9692335">
        <ele>3.02124</ele>
        <time>2011-08-28T18:25:13Z</time>
      </trkpt>
      <trkpt lat="59.3930387" lon="17.9690259">
        <ele>4.94385</ele>
        <time>2011-08-28T18:25:18Z</time>
      </trkpt>
      <trkpt lat="59.3931153" lon="17.9689336">
        <ele>6.38586</ele>
        <time>2011-08-28T18:25:21Z</time>
      </trkpt>
      <trkpt lat="59.3932439" lon="17.9688778">
        <ele>8.78918</ele>
        <time>2011-08-28T18:25:26Z</time>
      </trkpt>
      <trkpt lat="59.3934155" lon="17.9688958">
        <ele>11.1925</ele>
        <time>2011-08-28T18:25:32Z</time>
      </trkpt>
      <trkpt lat="59.3935351" lon="17.9689296">
        <ele>13.1151</ele>
        <time>2011-08-28T18:25:37Z</time>
      </trkpt>
      <trkpt lat="59.3936266" lon="17.9689442">
        <ele>15.0377</ele>
        <time>2011-08-28T18:25:41Z</time>
      </trkpt>
      <trkpt lat="59.3937314" lon="17.968984">
        <ele>16.9604</ele>
        <time>2011-08-28T18:25:45Z</time>
      </trkpt>
      <trkpt lat="59.3938395" lon="17.9689545">
        <ele>18.4023</ele>
        <time>2011-08-28T18:25:50Z</time>
      </trkpt>
      <trkpt lat="59.3939423" lon="17.96894">
        <ele>20.325</ele>
        <time>2011-08-28T18:25:55Z</time>
      </trkpt>
      <trkpt lat="59.3940784" lon="17.9690011">
        <ele>22.7283</ele>
        <time>2011-08-28T18:26:01Z</time>
      </trkpt>
      <trkpt lat="59.394209" lon="17.9690772">
        <ele>22.7283</ele>
        <time>2011-08-28T18:26:07Z</time>
      </trkpt>
      <trkpt lat="59.3943136" lon="17.9690995">
        <ele>22.7283</ele>
        <time>2011-08-28T18:26:12Z</time>
      </trkpt>
      <trkpt lat="59.3944141" lon="17.9690411">
        <ele>25.6123</ele>
        <time>2011-08-28T18:26:16Z</time>
      </trkpt>
      <trkpt lat="59.3945192" lon="17.9689539">
        <ele>26.5736</ele>
        <time>2011-08-28T18:26:21Z</time>
      </trkpt>
      <trkpt lat="59.3946725" lon="17.9689181">
        <ele>30.8995</ele>
        <time>2011-08-28T18:26:26Z</time>
      </trkpt>
      <trkpt lat="59.3947605" lon="17.9689188">
        <ele>31.3801</ele>
        <time>2011-08-28T18:26:29Z</time>
      </trkpt>
      <trkpt lat="59.394871" lon="17.9688507">
        <ele>33.7834</ele>
        <time>2011-08-28T18:26:33Z</time>
      </trkpt>
      <trkpt lat="59.3950031" lon="17.9687061">
        <ele>35.7061</ele>
        <time>2011-08-28T18:26:38Z</time>
      </trkpt>
      <trkpt lat="59.3950254" lon="17.9686077">
        <ele>35.7061</ele>
        <time>2011-08-28T18:26:40Z</time>
      </trkpt>
      <trkpt lat="59.3950088" lon="17.9684562">
        <ele>36.1868</ele>
        <time>2011-08-28T18:26:43Z</time>
      </trkpt>
      <trkpt lat="59.3949804" lon="17.9683619">
        <ele>35.2255</ele>
        <time>2011-08-28T18:26:45Z</time>
      </trkpt>
      <trkpt lat="59.3948786" lon="17.9680809">
        <ele>33.7834</ele>
        <time>2011-08-28T18:26:51Z</time>
      </trkpt>
      <trkpt lat="59.3948299" lon="17.9677257">
        <ele>31.3801</ele>
        <time>2011-08-28T18:26:57Z</time>
      </trkpt>
      <trkpt lat="59.3947524" lon="17.9675016">
        <ele>29.9381</ele>
        <time>2011-08-28T18:27:01Z</time>
      </trkpt>
      <trkpt lat="59.3946705" lon="17.9672491">
        <ele>27.0543</ele>
        <time>2011-08-28T18:27:06Z</time>
      </trkpt>
      <trkpt lat="59.3946105" lon="17.9671151">
        <ele>25.6123</ele>
        <time>2011-08-28T18:27:09Z</time>
      </trkpt>
      <trkpt lat="59.3946113" lon="17.9669071">
        <ele>24.1703</ele>
        <time>2011-08-28T18:27:12Z</time>
      </trkpt>
      <trkpt lat="59.3946928" lon="17.9666105">
        <ele>20.8057</ele>
        <time>2011-08-28T18:27:17Z</time>
      </trkpt>
      <trkpt lat="59.3948094" lon="17.9663497">
        <ele>20.8057</ele>
        <time>2011-08-28T18:27:23Z</time>
      </trkpt>
      <trkpt lat="59.3948867" lon="17.9661583">
        <ele>20.8057</ele>
        <time>2011-08-28T18:27:28Z</time>
      </trkpt>
      <trkpt lat="59.3950363" lon="17.9658925">
        <ele>22.2476</ele>
        <time>2011-08-28T18:27:34Z</time>
      </trkpt>
      <trkpt lat="59.3951423" lon="17.9657345">
        <ele>23.209</ele>
        <time>2011-08-28T18:27:39Z</time>
      </trkpt>
      <trkpt lat="59.3952347" lon="17.9656464">
        <ele>25.1317</ele>
        <time>2011-08-28T18:27:43Z</time>
      </trkpt>
      <trkpt lat="59.3953819" lon="17.9655613">
        <ele>29.9381</ele>
        <time>2011-08-28T18:27:48Z</time>
      </trkpt>
      <trkpt lat="59.3955247" lon="17.9655087">
        <ele>34.2642</ele>
        <time>2011-08-28T18:27:53Z</time>
      </trkpt>
      <trkpt lat="59.3956328" lon="17.9653584">
        <ele>34.2642</ele>
        <time>2011-08-28T18:27:57Z</time>
      </trkpt>
      <trkpt lat="59.3957017" lon="17.9651216">
        <ele>33.3029</ele>
        <time>2011-08-28T18:28:02Z</time>
      </trkpt>
      <trkpt lat="59.3957045" lon="17.96502">
        <ele>33.3029</ele>
        <time>2011-08-28T18:28:04Z</time>
      </trkpt>
      <trkpt lat="59.3956279" lon="17.9649019">
        <ele>31.8607</ele>
        <time>2011-08-28T18:28:08Z</time>
      </trkpt>
      <trkpt lat="59.3954708" lon="17.9647615">
        <ele>31.3801</ele>
        <time>2011-08-28T18:28:14Z</time>
      </trkpt>
      <trkpt lat="59.395357" lon="17.9646959">
        <ele>30.8995</ele>
        <time>2011-08-28T18:28:18Z</time>
      </trkpt>
      <trkpt lat="59.3952036" lon="17.9646251">
        <ele>29.4575</ele>
        <time>2011-08-28T18:28:23Z</time>
      </trkpt>
      <trkpt lat="59.3950653" lon="17.9645509">
        <ele>28.4962</ele>
        <time>2011-08-28T18:28:28Z</time>
      </trkpt>
      <trkpt lat="59.3949509" lon="17.964552">
        <ele>27.5349</ele>
        <time>2011-08-28T18:28:32Z</time>
      </trkpt>
      <trkpt lat="59.3948316" lon="17.9646418">
        <ele>26.5736</ele>
        <time>2011-08-28T18:28:36Z</time>
      </trkpt>
      <trkpt lat="59.3947404" lon="17.9647779">
        <ele>26.0929</ele>
        <time>2011-08-28T18:28:40Z</time>
      </trkpt>
      <trkpt lat="59.3946405" lon="17.9649052">
        <ele>23.6896</ele>
        <time>2011-08-28T18:28:44Z</time>
      </trkpt>
      <trkpt lat="59.3944482" lon="17.9650052">
        <ele>18.8831</ele>
        <time>2011-08-28T18:28:50Z</time>
      </trkpt>
      <trkpt lat="59.3942882" lon="17.965016">
        <ele>15.5184</ele>
        <time>2011-08-28T18:28:55Z</time>
      </trkpt>
      <trkpt lat="59.3941357" lon="17.9649543">
        <ele>13.5958</ele>
        <time>2011-08-28T18:29:00Z</time>
      </trkpt>
      <trkpt lat="59.3939475" lon="17.9647741">
        <ele>12.1538</ele>
        <time>2011-08-28T18:29:06Z</time>
      </trkpt>
      <trkpt lat="59.3938288" lon="17.964515">
        <ele>12.6344</ele>
        <time>2011-08-28T18:29:11Z</time>
      </trkpt>
      <trkpt lat="59.3937908" lon="17.9643956">
        <ele>13.1151</ele>
        <time>2011-08-28T18:29:13Z</time>
      </trkpt>
      <trkpt lat="59.3936675" lon="17.9640221">
        <ele>14.557</ele>
        <time>2011-08-28T18:29:19Z</time>
      </trkpt>
      <trkpt lat="59.3936252" lon="17.9639065">
        <ele>15.0377</ele>
        <time>2011-08-28T18:29:21Z</time>
      </trkpt>
      <trkpt lat="59.3935017" lon="17.9637966">
        <ele>14.557</ele>
        <time>2011-08-28T18:29:26Z</time>
      </trkpt>
      <trkpt lat="59.3933755" lon="17.9638734">
        <ele>12.6344</ele>
        <time>2011-08-28T18:29:30Z</time>
      </trkpt>
      <trkpt lat="59.3932373" lon="17.9640531">
        <ele>10.7118</ele>
        <time>2011-08-28T18:29:34Z</time>
      </trkpt>
      <trkpt lat="59.3930759" lon="17.964379">
        <ele>12.1538</ele>
        <time>2011-08-28T18:29:40Z</time>
      </trkpt>
      <trkpt lat="59.3929967" lon="17.9645445">
        <ele>12.1538</ele>
        <time>2011-08-28T18:29:43Z</time>
      </trkpt>
      <trkpt lat="59.3928816" lon="17.9648415">
        <ele>12.1538</ele>
        <time>2011-08-28T18:29:48Z</time>
      </trkpt>
      <trkpt lat="59.3927637" lon="17.9651948">
        <ele>11.6732</ele>
        <time>2011-08-28T18:29:54Z</time>
      </trkpt>
      <trkpt lat="59.3926921" lon="17.9654371">
        <ele>11.6732</ele>
        <time>2011-08-28T18:29:58Z</time>
      </trkpt>
      <trkpt lat="59.3925907" lon="17.9657905">
        <ele>12.6344</ele>
        <time>2011-08-28T18:30:04Z</time>
      </trkpt>
      <trkpt lat="59.3925232" lon="17.9661068">
        <ele>12.6344</ele>
        <time>2011-08-28T18:30:09Z</time>
      </trkpt>
      <trkpt lat="59.39247" lon="17.9664347">
        <ele>13.1151</ele>
        <time>2011-08-28T18:30:14Z</time>
      </trkpt>
      <trkpt lat="59.3924639" lon="17.966833">
        <ele>14.0764</ele>
        <time>2011-08-28T18:30:20Z</time>
      </trkpt>
      <trkpt lat="59.3924833" lon="17.9672154">
        <ele>14.0764</ele>
        <time>2011-08-28T18:30:26Z</time>
      </trkpt>
      <trkpt lat="59.3925249" lon="17.9676118">
        <ele>13.1151</ele>
        <time>2011-08-28T18:30:32Z</time>
      </trkpt>
      <trkpt lat="59.3925208" lon="17.9679566">
        <ele>12.6344</ele>
        <time>2011-08-28T18:30:37Z</time>
      </trkpt>
      <trkpt lat="59.3925177" lon="17.9682955">
        <ele>12.6344</ele>
        <time>2011-08-28T18:30:42Z</time>
      </trkpt>
      <trkpt lat="59.3924949" lon="17.968558">
        <ele>12.6344</ele>
        <time>2011-08-28T18:30:46Z</time>
      </trkpt>
      <trkpt lat="59.3924504" lon="17.968995">
        <ele>12.6344</ele>
        <time>2011-08-28T18:30:53Z</time>
      </trkpt>
      <trkpt lat="59.3923759" lon="17.9694503">
        <ele>12.1538</ele>
        <time>2011-08-28T18:31:00Z</time>
      </trkpt>
      <trkpt lat="59.3923303" lon="17.9697593">
        <ele>12.1538</ele>
        <time>2011-08-28T18:31:05Z</time>
      </trkpt>
      <trkpt lat="59.39225" lon="17.969994">
        <ele>12.1538</ele>
        <time>2011-08-28T18:31:10Z</time>
      </trkpt>
      <trkpt lat="59.3921342" lon="17.9700146">
        <ele>12.6344</ele>
        <time>2011-08-28T18:31:14Z</time>
      </trkpt>
      <trkpt lat="59.3919622" lon="17.9700345">
        <ele>12.6344</ele>
        <time>2011-08-28T18:31:19Z</time>
      </trkpt>
      <trkpt lat="59.3919246" lon="17.9700449">
        <ele>12.6344</ele>
        <time>2011-08-28T18:31:20Z</time>
      </trkpt>
      <trkpt lat="59.3918017" lon="17.9700768">
        <ele>12.6344</ele>
        <time>2011-08-28T18:31:24Z</time>
      </trkpt>
      <trkpt lat="59.3916802" lon="17.9701024">
        <ele>13.5958</ele>
        <time>2011-08-28T18:31:29Z</time>
      </trkpt>
      <trkpt lat="59.3915468" lon="17.9701046">
        <ele>15.5184</ele>
        <time>2011-08-28T18:31:35Z</time>
      </trkpt>
      <trkpt lat="59.3914398" lon="17.9701201">
        <ele>16.9604</ele>
        <time>2011-08-28T18:31:40Z</time>
      </trkpt>
      <trkpt lat="59.3914065" lon="17.9701304">
        <ele>17.4412</ele>
        <time>2011-08-28T18:31:42Z</time>
      </trkpt>
      <trkpt lat="59.3912943" lon="17.9701685">
        <ele>19.8444</ele>
        <time>2011-08-28T18:31:48Z</time>
      </trkpt>
      <trkpt lat="59.3911653" lon="17.9702408">
        <ele>21.767</ele>
        <time>2011-08-28T18:31:53Z</time>
      </trkpt>
      <trkpt lat="59.3910476" lon="17.9703289">
        <ele>22.7283</ele>
        <time>2011-08-28T18:31:59Z</time>
      </trkpt>
      <trkpt lat="59.3910222" lon="17.9703451">
        <ele>21.767</ele>
        <time>2011-08-28T18:32:01Z</time>
      </trkpt>
      <trkpt lat="59.3909591" lon="17.9704412">
        <ele>24.651</ele>
        <time>2011-08-28T18:32:08Z</time>
      </trkpt>
      <trkpt lat="59.3909047" lon="17.9705254">
        <ele>29.4575</ele>
        <time>2011-08-28T18:32:14Z</time>
      </trkpt>
      <trkpt lat="59.3908664" lon="17.9705694">
        <ele>30.4188</ele>
        <time>2011-08-28T18:32:18Z</time>
      </trkpt>
      <trkpt lat="59.3908576" lon="17.9705867">
        <ele>31.3801</ele>
        <time>2011-08-28T18:32:19Z</time>
      </trkpt>
      <trkpt lat="59.3908357" lon="17.9706412">
        <ele>32.3416</ele>
        <time>2011-08-28T18:32:22Z</time>
      </trkpt>
      <trkpt lat="59.3907623" lon="17.9707086">
        <ele>32.8223</ele>
        <time>2011-08-28T18:32:28Z</time>
      </trkpt>
      <trkpt lat="59.390754" lon="17.9707249">
        <ele>32.8223</ele>
        <time>2011-08-28T18:32:29Z</time>
      </trkpt>
      <trkpt lat="59.390699" lon="17.9707804">
        <ele>33.7834</ele>
        <time>2011-08-28T18:32:34Z</time>
      </trkpt>
      <trkpt lat="59.3906301" lon="17.9708425">
        <ele>37.1481</ele>
        <time>2011-08-28T18:32:40Z</time>
      </trkpt>
      <trkpt lat="59.390591" lon="17.9709006">
        <ele>38.1094</ele>
        <time>2011-08-28T18:32:43Z</time>
      </trkpt>
      <trkpt lat="59.3905501" lon="17.9709513">
        <ele>39.0707</ele>
        <time>2011-08-28T18:32:45Z</time>
      </trkpt>
      <trkpt lat="59.3905247" lon="17.9711558">
        <ele>42.4354</ele>
        <time>2011-08-28T18:32:50Z</time>
      </trkpt>
      <trkpt lat="59.3905233" lon="17.9712948">
        <ele>43.3966</ele>
        <time>2011-08-28T18:32:53Z</time>
      </trkpt>
      <trkpt lat="59.3905095" lon="17.971433">
        <ele>43.8773</ele>
        <time>2011-08-28T18:32:56Z</time>
      </trkpt>
      <trkpt lat="59.390381" lon="17.9715036">
        <ele>44.8386</ele>
        <time>2011-08-28T18:33:01Z</time>
      </trkpt>
      <trkpt lat="59.3902377" lon="17.9714529">
        <ele>43.8773</ele>
        <time>2011-08-28T18:33:06Z</time>
      </trkpt>
      <trkpt lat="59.3901426" lon="17.9714273">
        <ele>43.3966</ele>
        <time>2011-08-28T18:33:09Z</time>
      </trkpt>
      <trkpt lat="59.3899234" lon="17.9713991">
        <ele>40.5128</ele>
        <time>2011-08-28T18:33:16Z</time>
      </trkpt>
      <trkpt lat="59.3897731" lon="17.9714695">
        <ele>40.5128</ele>
        <time>2011-08-28T18:33:21Z</time>
      </trkpt>
      <trkpt lat="59.3896558" lon="17.9715932">
        <ele>37.6287</ele>
        <time>2011-08-28T18:33:26Z</time>
      </trkpt>
      <trkpt lat="59.3895133" lon="17.9716076">
        <ele>37.1481</ele>
        <time>2011-08-28T18:33:31Z</time>
      </trkpt>
      <trkpt lat="59.3893989" lon="17.9716993">
        <ele>36.6675</ele>
        <time>2011-08-28T18:33:35Z</time>
      </trkpt>
      <trkpt lat="59.3892861" lon="17.9718154">
        <ele>36.1868</ele>
        <time>2011-08-28T18:33:39Z</time>
      </trkpt>
      <trkpt lat="59.3891346" lon="17.9720139">
        <ele>36.6675</ele>
        <time>2011-08-28T18:33:44Z</time>
      </trkpt>
      <trkpt lat="59.3890097" lon="17.9721926">
        <ele>38.5901</ele>
        <time>2011-08-28T18:33:49Z</time>
      </trkpt>
      <trkpt lat="59.3889038" lon="17.9723415">
        <ele>39.5513</ele>
        <time>2011-08-28T18:33:53Z</time>
      </trkpt>
      <trkpt lat="59.3887759" lon="17.9725361">
        <ele>36.1868</ele>
        <time>2011-08-28T18:33:58Z</time>
      </trkpt>
      <trkpt lat="59.3885891" lon="17.9726282">
        <ele>30.4188</ele>
        <time>2011-08-28T18:34:03Z</time>
      </trkpt>
      <trkpt lat="59.3884488" lon="17.97265">
        <ele>27.5349</ele>
        <time>2011-08-28T18:34:07Z</time>
      </trkpt>
      <trkpt lat="59.3882902" lon="17.9725788">
        <ele>26.0929</ele>
        <time>2011-08-28T18:34:12Z</time>
      </trkpt>
      <trkpt lat="59.3881348" lon="17.9725464">
        <ele>23.6896</ele>
        <time>2011-08-28T18:34:16Z</time>
      </trkpt>
      <trkpt lat="59.3881058" lon="17.9725433">
        <ele>22.7283</ele>
        <time>2011-08-28T18:34:17Z</time>
      </trkpt>
      <trkpt lat="59.3879644" lon="17.9723941">
        <ele>15.5184</ele>
        <time>2011-08-28T18:34:23Z</time>
      </trkpt>
      <trkpt lat="59.3878623" lon="17.9722194">
        <ele>15.0377</ele>
        <time>2011-08-28T18:34:27Z</time>
      </trkpt>
      <trkpt lat="59.3877469" lon="17.971975">
        <ele>11.6732</ele>
        <time>2011-08-28T18:34:32Z</time>
      </trkpt>
      <trkpt lat="59.3875697" lon="17.9718259">
        <ele>18.4023</ele>
        <time>2011-08-28T18:34:37Z</time>
      </trkpt>
      <trkpt lat="59.387423" lon="17.9717256">
        <ele>21.2864</ele>
        <time>2011-08-28T18:34:42Z</time>
      </trkpt>
      <trkpt lat="59.3873358" lon="17.9716324">
        <ele>21.2864</ele>
        <time>2011-08-28T18:34:45Z</time>
      </trkpt>
      <trkpt lat="59.3872235" lon="17.9714959">
        <ele>16.9604</ele>
        <time>2011-08-28T18:34:51Z</time>
      </trkpt>
      <trkpt lat="59.3870671" lon="17.9713626">
        <ele>11.1925</ele>
        <time>2011-08-28T18:34:57Z</time>
      </trkpt>
      <trkpt lat="59.3869506" lon="17.9712493">
        <ele>8.30859</ele>
        <time>2011-08-28T18:35:02Z</time>
      </trkpt>
      <trkpt lat="59.386871" lon="17.971154">
        <ele>6.38586</ele>
        <time>2011-08-28T18:35:06Z</time>
      </trkpt>
      <trkpt lat="59.3867182" lon="17.9710648">
        <ele>7.82788</ele>
        <time>2011-08-28T18:35:12Z</time>
      </trkpt>
      <trkpt lat="59.3865698" lon="17.97103">
        <ele>10.7118</ele>
        <time>2011-08-28T18:35:17Z</time>
      </trkpt>
      <trkpt lat="59.386521" lon="17.9710597">
        <ele>11.1925</ele>
        <time>2011-08-28T18:35:19Z</time>
      </trkpt>
      <trkpt lat="59.3864667" lon="17.9712088">
        <ele>20.325</ele>
        <time>2011-08-28T18:35:24Z</time>
      </trkpt>
      <trkpt lat="59.3864859" lon="17.9714884">
        <ele>30.4188</ele>
        <time>2011-08-28T18:35:29Z</time>
      </trkpt>
      <trkpt lat="59.3865216" lon="17.9716272">
        <ele>33.7834</ele>
        <time>2011-08-28T18:35:32Z</time>
      </trkpt>
      <trkpt lat="59.3865242" lon="17.9719578">
        <ele>39.0707</ele>
        <time>2011-08-28T18:35:38Z</time>
      </trkpt>
      <trkpt lat="59.3865646" lon="17.972194">
        <ele>42.916</ele>
        <time>2011-08-28T18:35:42Z</time>
      </trkpt>
      <trkpt lat="59.38663" lon="17.9724215">
        <ele>46.2806</ele>
        <time>2011-08-28T18:35:46Z</time>
      </trkpt>
      <trkpt lat="59.3866927" lon="17.9725878">
        <ele>46.2806</ele>
        <time>2011-08-28T18:35:50Z</time>
      </trkpt>
      <trkpt lat="59.3867833" lon="17.9727332">
        <ele>45.7999</ele>
        <time>2011-08-28T18:35:54Z</time>
      </trkpt>
      <trkpt lat="59.3868724" lon="17.9729902">
        <ele>44.8386</ele>
        <time>2011-08-28T18:35:58Z</time>
      </trkpt>
      <trkpt lat="59.3869382" lon="17.9732655">
        <ele>41.9547</ele>
        <time>2011-08-28T18:36:03Z</time>
      </trkpt>
      <trkpt lat="59.3870308" lon="17.9735809">
        <ele>40.0321</ele>
        <time>2011-08-28T18:36:08Z</time>
      </trkpt>
      <trkpt lat="59.3870453" lon="17.9737343">
        <ele>39.0707</ele>
        <time>2011-08-28T18:36:10Z</time>
      </trkpt>
      <trkpt lat="59.3871028" lon="17.9741221">
        <ele>39.0707</ele>
        <time>2011-08-28T18:36:16Z</time>
      </trkpt>
      <trkpt lat="59.3871059" lon="17.974423">
        <ele>38.5901</ele>
        <time>2011-08-28T18:36:21Z</time>
      </trkpt>
      <trkpt lat="59.3870775" lon="17.9746795">
        <ele>39.0707</ele>
        <time>2011-08-28T18:36:26Z</time>
      </trkpt>
      <trkpt lat="59.3870432" lon="17.9749016">
        <ele>40.5128</ele>
        <time>2011-08-28T18:36:30Z</time>
      </trkpt>
      <trkpt lat="59.3869936" lon="17.9752073">
        <ele>41.9547</ele>
        <time>2011-08-28T18:36:35Z</time>
      </trkpt>
      <trkpt lat="59.3869735" lon="17.9755346">
        <ele>41.9547</ele>
        <time>2011-08-28T18:36:40Z</time>
      </trkpt>
      <trkpt lat="59.3869741" lon="17.9755866">
        <ele>42.4354</ele>
        <time>2011-08-28T18:36:41Z</time>
      </trkpt>
      <trkpt lat="59.3869924" lon="17.9758175">
        <ele>43.8773</ele>
        <time>2011-08-28T18:36:46Z</time>
      </trkpt>
      <trkpt lat="59.3869935" lon="17.9760735">
        <ele>42.4354</ele>
        <time>2011-08-28T18:36:51Z</time>
      </trkpt>
      <trkpt lat="59.3869584" lon="17.976259">
        <ele>42.916</ele>
        <time>2011-08-28T18:36:54Z</time>
      </trkpt>
      <trkpt lat="59.3869315" lon="17.9763699">
        <ele>41.9547</ele>
        <time>2011-08-28T18:36:56Z</time>
      </trkpt>
      <trkpt lat="59.3869214" lon="17.9764261">
        <ele>41.9547</ele>
        <time>2011-08-28T18:36:57Z</time>
      </trkpt>
      <trkpt lat="59.3868699" lon="17.9767712">
        <ele>40.9934</ele>
        <time>2011-08-28T18:37:03Z</time>
      </trkpt>
      <trkpt lat="59.3868735" lon="17.977043">
        <ele>42.4354</ele>
        <time>2011-08-28T18:37:08Z</time>
      </trkpt>
      <trkpt lat="59.3868739" lon="17.9773126">
        <ele>42.916</ele>
        <time>2011-08-28T18:37:13Z</time>
      </trkpt>
      <trkpt lat="59.3868572" lon="17.9775123">
        <ele>43.8773</ele>
        <time>2011-08-28T18:37:17Z</time>
      </trkpt>
      <trkpt lat="59.3867925" lon="17.9777373">
        <ele>43.3966</ele>
        <time>2011-08-28T18:37:22Z</time>
      </trkpt>
      <trkpt lat="59.3867614" lon="17.9779926">
        <ele>45.3192</ele>
        <time>2011-08-28T18:37:27Z</time>
      </trkpt>
      <trkpt lat="59.3867163" lon="17.9782367">
        <ele>47.7225</ele>
        <time>2011-08-28T18:37:32Z</time>
      </trkpt>
      <trkpt lat="59.3866998" lon="17.9784971">
        <ele>48.684</ele>
        <time>2011-08-28T18:37:37Z</time>
      </trkpt>
      <trkpt lat="59.3867445" lon="17.9787239">
        <ele>48.684</ele>
        <time>2011-08-28T18:37:41Z</time>
      </trkpt>
      <trkpt lat="59.3867599" lon="17.9788261">
        <ele>48.2034</ele>
        <time>2011-08-28T18:37:43Z</time>
      </trkpt>
      <trkpt lat="59.386838" lon="17.9789282">
        <ele>47.2418</ele>
        <time>2011-08-28T18:37:47Z</time>
      </trkpt>
      <trkpt lat="59.3869813" lon="17.979164">
        <ele>44.8386</ele>
        <time>2011-08-28T18:37:54Z</time>
      </trkpt>
      <trkpt lat="59.3870599" lon="17.9793235">
        <ele>41.9547</ele>
        <time>2011-08-28T18:37:58Z</time>
      </trkpt>
      <trkpt lat="59.3870777" lon="17.9793659">
        <ele>41.9547</ele>
        <time>2011-08-28T18:37:59Z</time>
      </trkpt>
      <trkpt lat="59.3872065" lon="17.9796135">
        <ele>40.0321</ele>
        <time>2011-08-28T18:38:05Z</time>
      </trkpt>
      <trkpt lat="59.387331" lon="17.9797489">
        <ele>38.1094</ele>
        <time>2011-08-28T18:38:10Z</time>
      </trkpt>
      <trkpt lat="59.3874422" lon="17.9797177">
        <ele>37.6287</ele>
        <time>2011-08-28T18:38:14Z</time>
      </trkpt>
      <trkpt lat="59.3875954" lon="17.9796175">
        <ele>38.1094</ele>
        <time>2011-08-28T18:38:19Z</time>
      </trkpt>
      <trkpt lat="59.3877028" lon="17.9794921">
        <ele>36.1868</ele>
        <time>2011-08-28T18:38:23Z</time>
      </trkpt>
      <trkpt lat="59.3878109" lon="17.9792872">
        <ele>33.7834</ele>
        <time>2011-08-28T18:38:28Z</time>
      </trkpt>
      <trkpt lat="59.3878961" lon="17.9791026">
        <ele>33.7834</ele>
        <time>2011-08-28T18:38:32Z</time>
      </trkpt>
      <trkpt lat="59.3879867" lon="17.9789262">
        <ele>29.4575</ele>
        <time>2011-08-28T18:38:37Z</time>
      </trkpt>
      <trkpt lat="59.3880377" lon="17.978865">
        <ele>28.4962</ele>
        <time>2011-08-28T18:38:39Z</time>
      </trkpt>
      <trkpt lat="59.3881171" lon="17.9789407">
        <ele>26.5736</ele>
        <time>2011-08-28T18:38:43Z</time>
      </trkpt>
      <trkpt lat="59.3881416" lon="17.9791192">
        <ele>25.6123</ele>
        <time>2011-08-28T18:38:48Z</time>
      </trkpt>
      <trkpt lat="59.3882135" lon="17.9791285">
        <ele>26.5736</ele>
        <time>2011-08-28T18:38:51Z</time>
      </trkpt>
      <trkpt lat="59.3883419" lon="17.9789374">
        <ele>28.9769</ele>
        <time>2011-08-28T18:38:56Z</time>
      </trkpt>
      <trkpt lat="59.3884416" lon="17.978724">
        <ele>28.9769</ele>
        <time>2011-08-28T18:39:00Z</time>
      </trkpt>
      <trkpt lat="59.3885412" lon="17.9785072">
        <ele>29.9381</ele>
        <time>2011-08-28T18:39:04Z</time>
      </trkpt>
      <trkpt lat="59.3886305" lon="17.9782792">
        <ele>31.3801</ele>
        <time>2011-08-28T18:39:08Z</time>
      </trkpt>
      <trkpt lat="59.3887242" lon="17.978027">
        <ele>32.8223</ele>
        <time>2011-08-28T18:39:12Z</time>
      </trkpt>
      <trkpt lat="59.3888036" lon="17.9777762">
        <ele>35.7061</ele>
        <time>2011-08-28T18:39:16Z</time>
      </trkpt>
      <trkpt lat="59.3888927" lon="17.9775916">
        <ele>39.0707</ele>
        <time>2011-08-28T18:39:20Z</time>
      </trkpt>
      <trkpt lat="59.3890277" lon="17.9772238">
        <ele>41.9547</ele>
        <time>2011-08-28T18:39:27Z</time>
      </trkpt>
      <trkpt lat="59.3891211" lon="17.976954">
        <ele>42.916</ele>
        <time>2011-08-28T18:39:33Z</time>
      </trkpt>
      <trkpt lat="59.3891791" lon="17.9767385">
        <ele>44.358</ele>
        <time>2011-08-28T18:39:37Z</time>
      </trkpt>
      <trkpt lat="59.3892484" lon="17.9764611">
        <ele>48.684</ele>
        <time>2011-08-28T18:39:42Z</time>
      </trkpt>
      <trkpt lat="59.3893097" lon="17.9762496">
        <ele>51.0872</ele>
        <time>2011-08-28T18:39:46Z</time>
      </trkpt>
      <trkpt lat="59.3894076" lon="17.9759881">
        <ele>54.9324</ele>
        <time>2011-08-28T18:39:52Z</time>
      </trkpt>
      <trkpt lat="59.3895328" lon="17.9756939">
        <ele>53.9712</ele>
        <time>2011-08-28T18:39:58Z</time>
      </trkpt>
      <trkpt lat="59.3896488" lon="17.9754056">
        <ele>47.2418</ele>
        <time>2011-08-28T18:40:03Z</time>
      </trkpt>
      <trkpt lat="59.3897523" lon="17.9751431">
        <ele>44.8386</ele>
        <time>2011-08-28T18:40:08Z</time>
      </trkpt>
      <trkpt lat="59.3898853" lon="17.9747669">
        <ele>39.0707</ele>
        <time>2011-08-28T18:40:15Z</time>
      </trkpt>
      <trkpt lat="59.3900078" lon="17.9745381">
        <ele>33.3029</ele>
        <time>2011-08-28T18:40:20Z</time>
      </trkpt>
      <trkpt lat="59.3901355" lon="17.9743841">
        <ele>30.8995</ele>
        <time>2011-08-28T18:40:24Z</time>
      </trkpt>
      <trkpt lat="59.3902426" lon="17.9742463">
        <ele>28.9769</ele>
        <time>2011-08-28T18:40:28Z</time>
      </trkpt>
      <trkpt lat="59.3904413" lon="17.974118">
        <ele>28.9769</ele>
        <time>2011-08-28T18:40:34Z</time>
      </trkpt>
      <trkpt lat="59.390599" lon="17.9740836">
        <ele>29.9381</ele>
        <time>2011-08-28T18:40:38Z</time>
      </trkpt>
      <trkpt lat="59.3907387" lon="17.9740701">
        <ele>29.4575</ele>
        <time>2011-08-28T18:40:42Z</time>
      </trkpt>
      <trkpt lat="59.3908803" lon="17.9741074">
        <ele>28.0155</ele>
        <time>2011-08-28T18:40:46Z</time>
      </trkpt>
      <trkpt lat="59.3910222" lon="17.9742485">
        <ele>24.1703</ele>
        <time>2011-08-28T18:40:50Z</time>
      </trkpt>
      <trkpt lat="59.3911956" lon="17.9744619">
        <ele>20.8057</ele>
        <time>2011-08-28T18:40:55Z</time>
      </trkpt>
      <trkpt lat="59.3913614" lon="17.9746762">
        <ele>17.4412</ele>
        <time>2011-08-28T18:41:00Z</time>
      </trkpt>
      <trkpt lat="59.3915136" lon="17.9748189">
        <ele>14.557</ele>
        <time>2011-08-28T18:41:04Z</time>
      </trkpt>
      <trkpt lat="59.3916874" lon="17.9751379">
        <ele>13.1151</ele>
        <time>2011-08-28T18:41:10Z</time>
      </trkpt>
      <trkpt lat="59.391809" lon="17.9755683">
        <ele>9.2699</ele>
        <time>2011-08-28T18:41:17Z</time>
      </trkpt>
      <trkpt lat="59.3918779" lon="17.9758761">
        <ele>7.34717</ele>
        <time>2011-08-28T18:41:22Z</time>
      </trkpt>
      <trkpt lat="59.391956" lon="17.9761817">
        <ele>6.86646</ele>
        <time>2011-08-28T18:41:27Z</time>
      </trkpt>
      <trkpt lat="59.3920466" lon="17.9765184">
        <ele>5.42456</ele>
        <time>2011-08-28T18:41:33Z</time>
      </trkpt>
      <trkpt lat="59.3920739" lon="17.9766338">
        <ele>4.94385</ele>
        <time>2011-08-28T18:41:35Z</time>
      </trkpt>
      <trkpt lat="59.3921121" lon="17.9768769">
        <ele>4.46326</ele>
        <time>2011-08-28T18:41:39Z</time>
      </trkpt>
      <trkpt lat="59.3921706" lon="17.9772602">
        <ele>4.46326</ele>
        <time>2011-08-28T18:41:45Z</time>
      </trkpt>
      <trkpt lat="59.3922109" lon="17.9775856">
        <ele>3.98267</ele>
        <time>2011-08-28T18:41:50Z</time>
      </trkpt>
      <trkpt lat="59.392258" lon="17.9780293">
        <ele>4.94385</ele>
        <time>2011-08-28T18:41:57Z</time>
      </trkpt>
      <trkpt lat="59.3923015" lon="17.9784615">
        <ele>5.42456</ele>
        <time>2011-08-28T18:42:04Z</time>
      </trkpt>
      <trkpt lat="59.3923359" lon="17.978755">
        <ele>5.42456</ele>
        <time>2011-08-28T18:42:09Z</time>
      </trkpt>
      <trkpt lat="59.3923504" lon="17.9790034">
        <ele>5.42456</ele>
        <time>2011-08-28T18:42:13Z</time>
      </trkpt>
      <trkpt lat="59.3922914" lon="17.9792824">
        <ele>7.34717</ele>
        <time>2011-08-28T18:42:18Z</time>
      </trkpt>
      <trkpt lat="59.3921919" lon="17.9793732">
        <ele>7.34717</ele>
        <time>2011-08-28T18:42:22Z</time>
      </trkpt>
      <trkpt lat="59.3921002" lon="17.9794364">
        <ele>7.34717</ele>
        <time>2011-08-28T18:42:27Z</time>
      </trkpt>
      <trkpt lat="59.3920288" lon="17.9795368">
        <ele>6.86646</ele>
        <time>2011-08-28T18:42:32Z</time>
      </trkpt>
      <trkpt lat="59.3920148" lon="17.9796141">
        <ele>6.86646</ele>
        <time>2011-08-28T18:42:34Z</time>
      </trkpt>
      <trkpt lat="59.3920147" lon="17.9797995">
        <ele>8.78918</ele>
        <time>2011-08-28T18:42:39Z</time>
      </trkpt>
      <trkpt lat="59.3919866" lon="17.9800234">
        <ele>11.1925</ele>
        <time>2011-08-28T18:42:45Z</time>
      </trkpt>
      <trkpt lat="59.3918724" lon="17.9801721">
        <ele>16.4797</ele>
        <time>2011-08-28T18:42:52Z</time>
      </trkpt>
      <trkpt lat="59.3918068" lon="17.9802798">
        <ele>16.9604</ele>
        <time>2011-08-28T18:42:56Z</time>
      </trkpt>
      <trkpt lat="59.3917815" lon="17.980414">
        <ele>20.325</ele>
        <time>2011-08-28T18:43:00Z</time>
      </trkpt>
      <trkpt lat="59.3917579" lon="17.9806749">
        <ele>25.1317</ele>
        <time>2011-08-28T18:43:06Z</time>
      </trkpt>
      <trkpt lat="59.3918075" lon="17.9808568">
        <ele>29.4575</ele>
        <time>2011-08-28T18:43:11Z</time>
      </trkpt>
      <trkpt lat="59.3918392" lon="17.9810412">
        <ele>28.4962</ele>
        <time>2011-08-28T18:43:15Z</time>
      </trkpt>
      <trkpt lat="59.3918897" lon="17.9813221">
        <ele>26.5736</ele>
        <time>2011-08-28T18:43:20Z</time>
      </trkpt>
      <trkpt lat="59.3918529" lon="17.9815452">
        <ele>24.651</ele>
        <time>2011-08-28T18:43:25Z</time>
      </trkpt>
      <trkpt lat="59.3918353" lon="17.9816986">
        <ele>24.651</ele>
        <time>2011-08-28T18:43:28Z</time>
      </trkpt>
      <trkpt lat="59.3917415" lon="17.982085">
        <ele>21.2864</ele>
        <time>2011-08-28T18:43:34Z</time>
      </trkpt>
      <trkpt lat="59.3916987" lon="17.9824771">
        <ele>19.8444</ele>
        <time>2011-08-28T18:43:40Z</time>
      </trkpt>
      <trkpt lat="59.3916252" lon="17.9827127">
        <ele>17.4412</ele>
        <time>2011-08-28T18:43:44Z</time>
      </trkpt>
      <trkpt lat="59.391535" lon="17.9829775">
        <ele>16.4797</ele>
        <time>2011-08-28T18:43:49Z</time>
      </trkpt>
      <trkpt lat="59.3914789" lon="17.983142">
        <ele>15.5184</ele>
        <time>2011-08-28T18:43:52Z</time>
      </trkpt>
      <trkpt lat="59.3913765" lon="17.9833819">
        <ele>14.0764</ele>
        <time>2011-08-28T18:43:57Z</time>
      </trkpt>
      <trkpt lat="59.3912688" lon="17.9837069">
        <ele>15.5184</ele>
        <time>2011-08-28T18:44:03Z</time>
      </trkpt>
      <trkpt lat="59.3911715" lon="17.9839964">
        <ele>13.5958</ele>
        <time>2011-08-28T18:44:08Z</time>
      </trkpt>
      <trkpt lat="59.3910881" lon="17.9841819">
        <ele>13.1151</ele>
        <time>2011-08-28T18:44:12Z</time>
      </trkpt>
      <trkpt lat="59.3909947" lon="17.9843657">
        <ele>12.1538</ele>
        <time>2011-08-28T18:44:16Z</time>
      </trkpt>
      <trkpt lat="59.3908849" lon="17.9846507">
        <ele>13.5958</ele>
        <time>2011-08-28T18:44:22Z</time>
      </trkpt>
      <trkpt lat="59.3907751" lon="17.9848592">
        <ele>12.6344</ele>
        <time>2011-08-28T18:44:27Z</time>
      </trkpt>
      <trkpt lat="59.3906688" lon="17.9850351">
        <ele>13.5958</ele>
        <time>2011-08-28T18:44:32Z</time>
      </trkpt>
      <trkpt lat="59.3905364" lon="17.9852636">
        <ele>15.999</ele>
        <time>2011-08-28T18:44:38Z</time>
      </trkpt>
      <trkpt lat="59.3904318" lon="17.9854083">
        <ele>18.8831</ele>
        <time>2011-08-28T18:44:43Z</time>
      </trkpt>
      <trkpt lat="59.3903011" lon="17.9855044">
        <ele>18.4023</ele>
        <time>2011-08-28T18:44:49Z</time>
      </trkpt>
      <trkpt lat="59.3902118" lon="17.9855477">
        <ele>16.9604</ele>
        <time>2011-08-28T18:44:54Z</time>
      </trkpt>
      <trkpt lat="59.3901012" lon="17.9856145">
        <ele>19.3638</ele>
        <time>2011-08-28T18:45:00Z</time>
      </trkpt>
      <trkpt lat="59.3900288" lon="17.9856338">
        <ele>22.2476</ele>
        <time>2011-08-28T18:45:04Z</time>
      </trkpt>
      <trkpt lat="59.3899393" lon="17.9856225">
        <ele>26.5736</ele>
        <time>2011-08-28T18:45:10Z</time>
      </trkpt>
      <trkpt lat="59.3898862" lon="17.9854311">
        <ele>25.1317</ele>
        <time>2011-08-28T18:45:16Z</time>
      </trkpt>
      <trkpt lat="59.3898364" lon="17.9851509">
        <ele>23.209</ele>
        <time>2011-08-28T18:45:22Z</time>
      </trkpt>
      <trkpt lat="59.3897939" lon="17.9849663">
        <ele>25.6123</ele>
        <time>2011-08-28T18:45:27Z</time>
      </trkpt>
      <trkpt lat="59.3897287" lon="17.9847474">
        <ele>27.0543</ele>
        <time>2011-08-28T18:45:33Z</time>
      </trkpt>
      <trkpt lat="59.3896889" lon="17.9846873">
        <ele>28.4962</ele>
        <time>2011-08-28T18:45:35Z</time>
      </trkpt>
      <trkpt lat="59.3896562" lon="17.9844947">
        <ele>29.9381</ele>
        <time>2011-08-28T18:45:40Z</time>
      </trkpt>
      <trkpt lat="59.3896499" lon="17.9842684">
        <ele>32.8223</ele>
        <time>2011-08-28T18:45:46Z</time>
      </trkpt>
      <trkpt lat="59.3896054" lon="17.9839986">
        <ele>38.1094</ele>
        <time>2011-08-28T18:45:53Z</time>
      </trkpt>
      <trkpt lat="59.3895734" lon="17.9838403">
        <ele>39.5513</ele>
        <time>2011-08-28T18:45:58Z</time>
      </trkpt>
      <trkpt lat="59.389532" lon="17.9837398">
        <ele>39.0707</ele>
        <time>2011-08-28T18:46:02Z</time>
      </trkpt>
      <trkpt lat="59.3894962" lon="17.9836261">
        <ele>40.0321</ele>
        <time>2011-08-28T18:46:06Z</time>
      </trkpt>
      <trkpt lat="59.3894454" lon="17.9833562">
        <ele>41.9547</ele>
        <time>2011-08-28T18:46:13Z</time>
      </trkpt>
      <trkpt lat="59.389491" lon="17.9831629">
        <ele>41.9547</ele>
        <time>2011-08-28T18:46:18Z</time>
      </trkpt>
      <trkpt lat="59.3895764" lon="17.9829761">
        <ele>42.4354</ele>
        <time>2011-08-28T18:46:23Z</time>
      </trkpt>
      <trkpt lat="59.3896171" lon="17.9827007">
        <ele>44.358</ele>
        <time>2011-08-28T18:46:29Z</time>
      </trkpt>
      <trkpt lat="59.3896151" lon="17.9826461">
        <ele>44.358</ele>
        <time>2011-08-28T18:46:30Z</time>
      </trkpt>
      <trkpt lat="59.3895583" lon="17.9824647">
        <ele>44.8386</ele>
        <time>2011-08-28T18:46:35Z</time>
      </trkpt>
      <trkpt lat="59.3895034" lon="17.9821205">
        <ele>46.2806</ele>
        <time>2011-08-28T18:46:41Z</time>
      </trkpt>
      <trkpt lat="59.3894802" lon="17.9818986">
        <ele>46.7612</ele>
        <time>2011-08-28T18:46:45Z</time>
      </trkpt>
      <trkpt lat="59.3894503" lon="17.9816287">
        <ele>46.7612</ele>
        <time>2011-08-28T18:46:49Z</time>
      </trkpt>
      <trkpt lat="59.389434" lon="17.9813872">
        <ele>46.7612</ele>
        <time>2011-08-28T18:46:53Z</time>
      </trkpt>
      <trkpt lat="59.3894524" lon="17.9810821">
        <ele>47.2418</ele>
        <time>2011-08-28T18:46:57Z</time>
      </trkpt>
      <trkpt lat="59.3894698" lon="17.9808147">
        <ele>47.7225</ele>
        <time>2011-08-28T18:47:01Z</time>
      </trkpt>
      <trkpt lat="59.3894708" lon="17.9805815">
        <ele>46.7612</ele>
        <time>2011-08-28T18:47:05Z</time>
      </trkpt>
      <trkpt lat="59.389407" lon="17.9803935">
        <ele>45.3192</ele>
        <time>2011-08-28T18:47:09Z</time>
      </trkpt>
      <trkpt lat="59.3892545" lon="17.9801982">
        <ele>45.3192</ele>
        <time>2011-08-28T18:47:15Z</time>
      </trkpt>
      <trkpt lat="59.3892283" lon="17.9801895">
        <ele>44.358</ele>
        <time>2011-08-28T18:47:16Z</time>
      </trkpt>
      <trkpt lat="59.3891222" lon="17.9802031">
        <ele>43.3966</ele>
        <time>2011-08-28T18:47:20Z</time>
      </trkpt>
      <trkpt lat="59.3890587" lon="17.9802263">
        <ele>42.4354</ele>
        <time>2011-08-28T18:47:22Z</time>
      </trkpt>
      <trkpt lat="59.3889396" lon="17.9802651">
        <ele>40.0321</ele>
        <time>2011-08-28T18:47:26Z</time>
      </trkpt>
      <trkpt lat="59.3887575" lon="17.9804362">
        <ele>36.1868</ele>
        <time>2011-08-28T18:47:32Z</time>
      </trkpt>
      <trkpt lat="59.3886539" lon="17.9805763">
        <ele>36.1868</ele>
        <time>2011-08-28T18:47:36Z</time>
      </trkpt>
      <trkpt lat="59.3884824" lon="17.9807926">
        <ele>33.7834</ele>
        <time>2011-08-28T18:47:42Z</time>
      </trkpt>
      <trkpt lat="59.3883859" lon="17.981008">
        <ele>34.7449</ele>
        <time>2011-08-28T18:47:46Z</time>
      </trkpt>
      <trkpt lat="59.3883579" lon="17.9811982">
        <ele>35.7061</ele>
        <time>2011-08-28T18:47:49Z</time>
      </trkpt>
      <trkpt lat="59.3882675" lon="17.9815017">
        <ele>36.6675</ele>
        <time>2011-08-28T18:47:54Z</time>
      </trkpt>
      <trkpt lat="59.3882315" lon="17.9817794">
        <ele>39.0707</ele>
        <time>2011-08-28T18:47:58Z</time>
      </trkpt>
      <trkpt lat="59.3882213" lon="17.9818559">
        <ele>39.5513</ele>
        <time>2011-08-28T18:47:59Z</time>
      </trkpt>
      <trkpt lat="59.3881219" lon="17.9821967">
        <ele>39.5513</ele>
        <time>2011-08-28T18:48:04Z</time>
      </trkpt>
      <trkpt lat="59.3880709" lon="17.9825248">
        <ele>40.5128</ele>
        <time>2011-08-28T18:48:09Z</time>
      </trkpt>
      <trkpt lat="59.3880152" lon="17.9828942">
        <ele>40.9934</ele>
        <time>2011-08-28T18:48:15Z</time>
      </trkpt>
      <trkpt lat="59.3879493" lon="17.9831001">
        <ele>37.1481</ele>
        <time>2011-08-28T18:48:19Z</time>
      </trkpt>
      <trkpt lat="59.3879163" lon="17.9834128">
        <ele>36.1868</ele>
        <time>2011-08-28T18:48:24Z</time>
      </trkpt>
      <trkpt lat="59.3879875" lon="17.9836772">
        <ele>38.5901</ele>
        <time>2011-08-28T18:48:30Z</time>
      </trkpt>
      <trkpt lat="59.3880453" lon="17.9838105">
        <ele>40.0321</ele>
        <time>2011-08-28T18:48:34Z</time>
      </trkpt>
      <trkpt lat="59.388167" lon="17.9840722">
        <ele>44.8386</ele>
        <time>2011-08-28T18:48:40Z</time>
      </trkpt>
      <trkpt lat="59.3882625" lon="17.9842714">
        <ele>46.7612</ele>
        <time>2011-08-28T18:48:45Z</time>
      </trkpt>
      <trkpt lat="59.3883828" lon="17.9844747">
        <ele>44.8386</ele>
        <time>2011-08-28T18:48:51Z</time>
      </trkpt>
      <trkpt lat="59.3884781" lon="17.9846009">
        <ele>45.3192</ele>
        <time>2011-08-28T18:48:56Z</time>
      </trkpt>
      <trkpt lat="59.3886196" lon="17.9846671">
        <ele>46.2806</ele>
        <time>2011-08-28T18:49:01Z</time>
      </trkpt>
      <trkpt lat="59.3887533" lon="17.9846974">
        <ele>44.8386</ele>
        <time>2011-08-28T18:49:06Z</time>
      </trkpt>
      <trkpt lat="59.3889061" lon="17.9847214">
        <ele>43.3966</ele>
        <time>2011-08-28T18:49:11Z</time>
      </trkpt>
      <trkpt lat="59.3890464" lon="17.984695">
        <ele>43.3966</ele>
        <time>2011-08-28T18:49:16Z</time>
      </trkpt>
      <trkpt lat="59.3892055" lon="17.9846793">
        <ele>45.7999</ele>
        <time>2011-08-28T18:49:21Z</time>
      </trkpt>
      <trkpt lat="59.3892315" lon="17.9846845">
        <ele>46.2806</ele>
        <time>2011-08-28T18:49:22Z</time>
      </trkpt>
      <trkpt lat="59.3893255" lon="17.9847609">
        <ele>46.7612</ele>
        <time>2011-08-28T18:49:26Z</time>
      </trkpt>
      <trkpt lat="59.3894172" lon="17.9848637">
        <ele>46.2806</ele>
        <time>2011-08-28T18:49:29Z</time>
      </trkpt>
      <trkpt lat="59.3896195" lon="17.9851149">
        <ele>42.916</ele>
        <time>2011-08-28T18:49:35Z</time>
      </trkpt>
      <trkpt lat="59.3897456" lon="17.9853924">
        <ele>38.5901</ele>
        <time>2011-08-28T18:49:40Z</time>
      </trkpt>
      <trkpt lat="59.389783" lon="17.9857347">
        <ele>34.7449</ele>
        <time>2011-08-28T18:49:45Z</time>
      </trkpt>
      <trkpt lat="59.3897935" lon="17.9859945">
        <ele>29.9381</ele>
        <time>2011-08-28T18:49:49Z</time>
      </trkpt>
      <trkpt lat="59.3898235" lon="17.9862989">
        <ele>26.0929</ele>
        <time>2011-08-28T18:49:53Z</time>
      </trkpt>
      <trkpt lat="59.3898384" lon="17.9865962">
        <ele>26.5736</ele>
        <time>2011-08-28T18:49:57Z</time>
      </trkpt>
      <trkpt lat="59.3898143" lon="17.9869341">
        <ele>23.209</ele>
        <time>2011-08-28T18:50:02Z</time>
      </trkpt>
      <trkpt lat="59.3897918" lon="17.9873313">
        <ele>21.2864</ele>
        <time>2011-08-28T18:50:08Z</time>
      </trkpt>
      <trkpt lat="59.3898777" lon="17.987518">
        <ele>20.325</ele>
        <time>2011-08-28T18:50:12Z</time>
      </trkpt>
      <trkpt lat="59.390001" lon="17.9875752">
        <ele>19.8444</ele>
        <time>2011-08-28T18:50:16Z</time>
      </trkpt>
      <trkpt lat="59.3901339" lon="17.9874132">
        <ele>18.4023</ele>
        <time>2011-08-28T18:50:21Z</time>
      </trkpt>
      <trkpt lat="59.3902644" lon="17.9871994">
        <ele>18.4023</ele>
        <time>2011-08-28T18:50:26Z</time>
      </trkpt>
      <trkpt lat="59.3903369" lon="17.9870874">
        <ele>16.9604</ele>
        <time>2011-08-28T18:50:29Z</time>
      </trkpt>
      <trkpt lat="59.3904434" lon="17.9869484">
        <ele>15.5184</ele>
        <time>2011-08-28T18:50:33Z</time>
      </trkpt>
      <trkpt lat="59.3906053" lon="17.9868246">
        <ele>15.0377</ele>
        <time>2011-08-28T18:50:38Z</time>
      </trkpt>
      <trkpt lat="59.3907847" lon="17.9867083">
        <ele>14.557</ele>
        <time>2011-08-28T18:50:43Z</time>
      </trkpt>
      <trkpt lat="59.3909543" lon="17.9866497">
        <ele>12.6344</ele>
        <time>2011-08-28T18:50:48Z</time>
      </trkpt>
      <trkpt lat="59.3911417" lon="17.9865813">
        <ele>12.1538</ele>
        <time>2011-08-28T18:50:53Z</time>
      </trkpt>
      <trkpt lat="59.3912972" lon="17.9865799">
        <ele>11.1925</ele>
        <time>2011-08-28T18:50:57Z</time>
      </trkpt>
      <trkpt lat="59.3914952" lon="17.9866518">
        <ele>10.2312</ele>
        <time>2011-08-28T18:51:03Z</time>
      </trkpt>
      <trkpt lat="59.391697" lon="17.9867367">
        <ele>13.5958</ele>
        <time>2011-08-28T18:51:09Z</time>
      </trkpt>
      <trkpt lat="59.391869" lon="17.9868054">
        <ele>15.0377</ele>
        <time>2011-08-28T18:51:14Z</time>
      </trkpt>
      <trkpt lat="59.3920411" lon="17.9869025">
        <ele>15.5184</ele>
        <time>2011-08-28T18:51:19Z</time>
      </trkpt>
      <trkpt lat="59.392207" lon="17.9869517">
        <ele>15.999</ele>
        <time>2011-08-28T18:51:24Z</time>
      </trkpt>
      <trkpt lat="59.3923467" lon="17.9869408">
        <ele>17.9218</ele>
        <time>2011-08-28T18:51:29Z</time>
      </trkpt>
      <trkpt lat="59.392465" lon="17.9869123">
        <ele>18.4023</ele>
        <time>2011-08-28T18:51:34Z</time>
      </trkpt>
      <trkpt lat="59.3926312" lon="17.9868573">
        <ele>20.325</ele>
        <time>2011-08-28T18:51:41Z</time>
      </trkpt>
      <trkpt lat="59.3926519" lon="17.9868448">
        <ele>21.2864</ele>
        <time>2011-08-28T18:51:42Z</time>
      </trkpt>
      <trkpt lat="59.3928395" lon="17.9868448">
        <ele>22.2476</ele>
        <time>2011-08-28T18:51:49Z</time>
      </trkpt>
      <trkpt lat="59.3929772" lon="17.9868377">
        <ele>22.7283</ele>
        <time>2011-08-28T18:51:54Z</time>
      </trkpt>
      <trkpt lat="59.3930436" lon="17.9868028">
        <ele>24.1703</ele>
        <time>2011-08-28T18:51:56Z</time>
      </trkpt>
      <trkpt lat="59.3931009" lon="17.9867583">
        <ele>23.6896</ele>
        <time>2011-08-28T18:51:58Z</time>
      </trkpt>
      <trkpt lat="59.3932057" lon="17.9866465">
        <ele>23.6896</ele>
        <time>2011-08-28T18:52:02Z</time>
      </trkpt>
      <trkpt lat="59.3932823" lon="17.9864886">
        <ele>24.1703</ele>
        <time>2011-08-28T18:52:06Z</time>
      </trkpt>
      <trkpt lat="59.3933144" lon="17.9863071">
        <ele>26.0929</ele>
        <time>2011-08-28T18:52:10Z</time>
      </trkpt>
      <trkpt lat="59.3933315" lon="17.9860631">
        <ele>27.0543</ele>
        <time>2011-08-28T18:52:15Z</time>
      </trkpt>
      <trkpt lat="59.3933434" lon="17.9857955">
        <ele>27.5349</ele>
        <time>2011-08-28T18:52:20Z</time>
      </trkpt>
      <trkpt lat="59.3933683" lon="17.9854298">
        <ele>28.9769</ele>
        <time>2011-08-28T18:52:27Z</time>
      </trkpt>
      <trkpt lat="59.3934341" lon="17.9852079">
        <ele>28.9769</ele>
        <time>2011-08-28T18:52:32Z</time>
      </trkpt>
      <trkpt lat="59.3935023" lon="17.9850859">
        <ele>28.0155</ele>
        <time>2011-08-28T18:52:36Z</time>
      </trkpt>
      <trkpt lat="59.3935305" lon="17.9850319">
        <ele>27.5349</ele>
        <time>2011-08-28T18:52:38Z</time>
      </trkpt>
      <trkpt lat="59.3936278" lon="17.9847812">
        <ele>28.0155</ele>
        <time>2011-08-28T18:52:44Z</time>
      </trkpt>
      <trkpt lat="59.3936734" lon="17.984549">
        <ele>28.9769</ele>
        <time>2011-08-28T18:52:49Z</time>
      </trkpt>
      <trkpt lat="59.3937273" lon="17.9844045">
        <ele>29.9381</ele>
        <time>2011-08-28T18:52:53Z</time>
      </trkpt>
      <trkpt lat="59.3937842" lon="17.9843294">
        <ele>29.9381</ele>
        <time>2011-08-28T18:52:56Z</time>
      </trkpt>
      <trkpt lat="59.3938727" lon="17.9840866">
        <ele>30.8995</ele>
        <time>2011-08-28T18:53:02Z</time>
      </trkpt>
      <trkpt lat="59.3938898" lon="17.9840496">
        <ele>30.8995</ele>
        <time>2011-08-28T18:53:03Z</time>
      </trkpt>
      <trkpt lat="59.3939546" lon="17.9837903">
        <ele>31.8607</ele>
        <time>2011-08-28T18:53:08Z</time>
      </trkpt>
      <trkpt lat="59.3939945" lon="17.9836116">
        <ele>33.7834</ele>
        <time>2011-08-28T18:53:12Z</time>
      </trkpt>
      <trkpt lat="59.3940008" lon="17.9833158">
        <ele>33.7834</ele>
        <time>2011-08-28T18:53:17Z</time>
      </trkpt>
      <trkpt lat="59.3940127" lon="17.9831899">
        <ele>33.3029</ele>
        <time>2011-08-28T18:53:19Z</time>
      </trkpt>
      <trkpt lat="59.3940348" lon="17.9828144">
        <ele>31.8607</ele>
        <time>2011-08-28T18:53:25Z</time>
      </trkpt>
      <trkpt lat="59.3940272" lon="17.9824584">
        <ele>32.8223</ele>
        <time>2011-08-28T18:53:30Z</time>
      </trkpt>
      <trkpt lat="59.3940386" lon="17.9820544">
        <ele>29.9381</ele>
        <time>2011-08-28T18:53:36Z</time>
      </trkpt>
      <trkpt lat="59.3939982" lon="17.9818111">
        <ele>29.9381</ele>
        <time>2011-08-28T18:53:40Z</time>
      </trkpt>
      <trkpt lat="59.3939168" lon="17.9815337">
        <ele>29.4575</ele>
        <time>2011-08-28T18:53:45Z</time>
      </trkpt>
      <trkpt lat="59.3938091" lon="17.9813137">
        <ele>27.0543</ele>
        <time>2011-08-28T18:53:49Z</time>
      </trkpt>
      <trkpt lat="59.3936821" lon="17.9811071">
        <ele>22.7283</ele>
        <time>2011-08-28T18:53:54Z</time>
      </trkpt>
      <trkpt lat="59.3935768" lon="17.98092">
        <ele>18.4023</ele>
        <time>2011-08-28T18:53:58Z</time>
      </trkpt>
      <trkpt lat="59.3934537" lon="17.9806742">
        <ele>15.5184</ele>
        <time>2011-08-28T18:54:03Z</time>
      </trkpt>
      <trkpt lat="59.393381" lon="17.9804046">
        <ele>13.5958</ele>
        <time>2011-08-28T18:54:07Z</time>
      </trkpt>
      <trkpt lat="59.3933398" lon="17.9800074">
        <ele>14.0764</ele>
        <time>2011-08-28T18:54:13Z</time>
      </trkpt>
      <trkpt lat="59.3933677" lon="17.9796576">
        <ele>10.2312</ele>
        <time>2011-08-28T18:54:18Z</time>
      </trkpt>
      <trkpt lat="59.3933874" lon="17.9792597">
        <ele>10.7118</ele>
        <time>2011-08-28T18:54:24Z</time>
      </trkpt>
      <trkpt lat="59.3934196" lon="17.9788615">
        <ele>12.6344</ele>
        <time>2011-08-28T18:54:30Z</time>
      </trkpt>
      <trkpt lat="59.3934544" lon="17.9786111">
        <ele>13.5958</ele>
        <time>2011-08-28T18:54:34Z</time>
      </trkpt>
      <trkpt lat="59.3935123" lon="17.9784061">
        <ele>15.0377</ele>
        <time>2011-08-28T18:54:38Z</time>
      </trkpt>
      <trkpt lat="59.3935934" lon="17.9780876">
        <ele>15.0377</ele>
        <time>2011-08-28T18:54:44Z</time>
      </trkpt>
      <trkpt lat="59.3936672" lon="17.9776457">
        <ele>14.0764</ele>
        <time>2011-08-28T18:54:51Z</time>
      </trkpt>
      <trkpt lat="59.3937366" lon="17.9772989">
        <ele>13.5958</ele>
        <time>2011-08-28T18:54:57Z</time>
      </trkpt>
      <trkpt lat="59.3937666" lon="17.9770655">
        <ele>13.1151</ele>
        <time>2011-08-28T18:55:01Z</time>
      </trkpt>
      <trkpt lat="59.3938902" lon="17.9769168">
        <ele>13.5958</ele>
        <time>2011-08-28T18:55:06Z</time>
      </trkpt>
      <trkpt lat="59.39401" lon="17.9768583">
        <ele>14.0764</ele>
        <time>2011-08-28T18:55:10Z</time>
      </trkpt>
      <trkpt lat="59.3941254" lon="17.9768198">
        <ele>15.0377</ele>
        <time>2011-08-28T18:55:14Z</time>
      </trkpt>
      <trkpt lat="59.394252" lon="17.9767988">
        <ele>16.9604</ele>
        <time>2011-08-28T18:55:19Z</time>
      </trkpt>
      <trkpt lat="59.3943649" lon="17.9768578">
        <ele>20.325</ele>
        <time>2011-08-28T18:55:24Z</time>
      </trkpt>
      <trkpt lat="59.394468" lon="17.976875">
        <ele>22.7283</ele>
        <time>2011-08-28T18:55:29Z</time>
      </trkpt>
      <trkpt lat="59.394554" lon="17.9769417">
        <ele>25.6123</ele>
        <time>2011-08-28T18:55:33Z</time>
      </trkpt>
      <trkpt lat="59.3946441" lon="17.9770283">
        <ele>27.5349</ele>
        <time>2011-08-28T18:55:37Z</time>
      </trkpt>
      <trkpt lat="59.3947349" lon="17.9771375">
        <ele>31.3801</ele>
        <time>2011-08-28T18:55:42Z</time>
      </trkpt>
      <trkpt lat="59.3947642" lon="17.9771611">
        <ele>31.8607</ele>
        <time>2011-08-28T18:55:44Z</time>
      </trkpt>
      <trkpt lat="59.3948509" lon="17.9773323">
        <ele>33.7834</ele>
        <time>2011-08-28T18:55:51Z</time>
      </trkpt>
      <trkpt lat="59.394901" lon="17.9774463">
        <ele>35.2255</ele>
        <time>2011-08-28T18:55:55Z</time>
      </trkpt>
      <trkpt lat="59.3949544" lon="17.977672">
        <ele>37.6287</ele>
        <time>2011-08-28T18:56:01Z</time>
      </trkpt>
      <trkpt lat="59.3949782" lon="17.9778751">
        <ele>38.1094</ele>
        <time>2011-08-28T18:56:06Z</time>
      </trkpt>
      <trkpt lat="59.3950031" lon="17.9780341">
        <ele>34.7449</ele>
        <time>2011-08-28T18:56:10Z</time>
      </trkpt>
      <trkpt lat="59.3950731" lon="17.9782394">
        <ele>34.2642</ele>
        <time>2011-08-28T18:56:16Z</time>
      </trkpt>
      <trkpt lat="59.395091" lon="17.9782667">
        <ele>34.7449</ele>
        <time>2011-08-28T18:56:17Z</time>
      </trkpt>
      <trkpt lat="59.3951607" lon="17.9785003">
        <ele>34.2642</ele>
        <time>2011-08-28T18:56:23Z</time>
      </trkpt>
      <trkpt lat="59.3952252" lon="17.9786754">
        <ele>36.1868</ele>
        <time>2011-08-28T18:56:28Z</time>
      </trkpt>
      <trkpt lat="59.3952693" lon="17.9788812">
        <ele>35.7061</ele>
        <time>2011-08-28T18:56:33Z</time>
      </trkpt>
      <trkpt lat="59.3952911" lon="17.9790842">
        <ele>36.6675</ele>
        <time>2011-08-28T18:56:38Z</time>
      </trkpt>
      <trkpt lat="59.3952892" lon="17.9793989">
        <ele>36.1868</ele>
        <time>2011-08-28T18:56:44Z</time>
      </trkpt>
      <trkpt lat="59.3952925" lon="17.9794385">
        <ele>36.6675</ele>
        <time>2011-08-28T18:56:45Z</time>
      </trkpt>
      <trkpt lat="59.3953525" lon="17.9795437">
        <ele>37.6287</ele>
        <time>2011-08-28T18:56:49Z</time>
      </trkpt>
      <trkpt lat="59.3954574" lon="17.9795033">
        <ele>38.5901</ele>
        <time>2011-08-28T18:56:55Z</time>
      </trkpt>
      <trkpt lat="59.3954786" lon="17.979483">
        <ele>39.5513</ele>
        <time>2011-08-28T18:56:56Z</time>
      </trkpt>
      <trkpt lat="59.3955952" lon="17.9794156">
        <ele>39.5513</ele>
        <time>2011-08-28T18:57:02Z</time>
      </trkpt>
      <trkpt lat="59.3957195" lon="17.979296">
        <ele>40.5128</ele>
        <time>2011-08-28T18:57:07Z</time>
      </trkpt>
      <trkpt lat="59.3958411" lon="17.9791936">
        <ele>41.9547</ele>
        <time>2011-08-28T18:57:12Z</time>
      </trkpt>
      <trkpt lat="59.3959367" lon="17.9790666">
        <ele>44.358</ele>
        <time>2011-08-28T18:57:16Z</time>
      </trkpt>
      <trkpt lat="59.3960329" lon="17.9789473">
        <ele>45.3192</ele>
        <time>2011-08-28T18:57:20Z</time>
      </trkpt>
      <trkpt lat="59.3961301" lon="17.9788405">
        <ele>45.7999</ele>
        <time>2011-08-28T18:57:24Z</time>
      </trkpt>
      <trkpt lat="59.3961565" lon="17.9788086">
        <ele>45.7999</ele>
        <time>2011-08-28T18:57:25Z</time>
      </trkpt>
      <trkpt lat="59.396262" lon="17.9786081">
        <ele>41.474</ele>
        <time>2011-08-28T18:57:30Z</time>
      </trkpt>
      <trkpt lat="59.3963827" lon="17.978443">
        <ele>39.5513</ele>
        <time>2011-08-28T18:57:34Z</time>
      </trkpt>
      <trkpt lat="59.3964889" lon="17.9783217">
        <ele>37.1481</ele>
        <time>2011-08-28T18:57:38Z</time>
      </trkpt>
      <trkpt lat="59.3966129" lon="17.9781498">
        <ele>33.7834</ele>
        <time>2011-08-28T18:57:42Z</time>
      </trkpt>
      <trkpt lat="59.3967535" lon="17.9778493">
        <ele>30.8995</ele>
        <time>2011-08-28T18:57:48Z</time>
      </trkpt>
      <trkpt lat="59.3968732" lon="17.9776161">
        <ele>29.4575</ele>
        <time>2011-08-28T18:57:53Z</time>
      </trkpt>
      <trkpt lat="59.3969858" lon="17.9773737">
        <ele>28.9769</ele>
        <time>2011-08-28T18:57:58Z</time>
      </trkpt>
      <trkpt lat="59.3971139" lon="17.9770806">
        <ele>30.4188</ele>
        <time>2011-08-28T18:58:03Z</time>
      </trkpt>
      <trkpt lat="59.3972065" lon="17.9768307">
        <ele>33.3029</ele>
        <time>2011-08-28T18:58:08Z</time>
      </trkpt>
      <trkpt lat="59.3972698" lon="17.9765522">
        <ele>34.2642</ele>
        <time>2011-08-28T18:58:13Z</time>
      </trkpt>
      <trkpt lat="59.3972497" lon="17.9762382">
        <ele>33.3029</ele>
        <time>2011-08-28T18:58:19Z</time>
      </trkpt>
      <trkpt lat="59.3972001" lon="17.9760663">
        <ele>34.7449</ele>
        <time>2011-08-28T18:58:23Z</time>
      </trkpt>
      <trkpt lat="59.397028" lon="17.9759849">
        <ele>32.3416</ele>
        <time>2011-08-28T18:58:29Z</time>
      </trkpt>
      <trkpt lat="59.3968523" lon="17.9759201">
        <ele>27.5349</ele>
        <time>2011-08-28T18:58:35Z</time>
      </trkpt>
      <trkpt lat="59.3967075" lon="17.9759291">
        <ele>25.1317</ele>
        <time>2011-08-28T18:58:39Z</time>
      </trkpt>
      <trkpt lat="59.3965065" lon="17.9759051">
        <ele>20.8057</ele>
        <time>2011-08-28T18:58:45Z</time>
      </trkpt>
      <trkpt lat="59.3963525" lon="17.9758373">
        <ele>18.8831</ele>
        <time>2011-08-28T18:58:50Z</time>
      </trkpt>
      <trkpt lat="59.3961473" lon="17.975699">
        <ele>14.557</ele>
        <time>2011-08-28T18:58:57Z</time>
      </trkpt>
      <trkpt lat="59.3959578" lon="17.9754839">
        <ele>12.6344</ele>
        <time>2011-08-28T18:59:03Z</time>
      </trkpt>
      <trkpt lat="59.3958304" lon="17.9753208">
        <ele>13.1151</ele>
        <time>2011-08-28T18:59:07Z</time>
      </trkpt>
      <trkpt lat="59.3956719" lon="17.9751209">
        <ele>13.1151</ele>
        <time>2011-08-28T18:59:12Z</time>
      </trkpt>
      <trkpt lat="59.3955113" lon="17.9749485">
        <ele>12.1538</ele>
        <time>2011-08-28T18:59:17Z</time>
      </trkpt>
      <trkpt lat="59.3953502" lon="17.9748199">
        <ele>11.6732</ele>
        <time>2011-08-28T18:59:22Z</time>
      </trkpt>
      <trkpt lat="59.3952703" lon="17.9747132">
        <ele>11.6732</ele>
        <time>2011-08-28T18:59:25Z</time>
      </trkpt>
      <trkpt lat="59.3952558" lon="17.9743053">
        <ele>12.6344</ele>
        <time>2011-08-28T18:59:31Z</time>
      </trkpt>
      <trkpt lat="59.3952793" lon="17.9739178">
        <ele>13.5958</ele>
        <time>2011-08-28T18:59:37Z</time>
      </trkpt>
      <trkpt lat="59.3952994" lon="17.9735193">
        <ele>14.0764</ele>
        <time>2011-08-28T18:59:43Z</time>
      </trkpt>
      <trkpt lat="59.3953205" lon="17.9732335">
        <ele>15.0377</ele>
        <time>2011-08-28T18:59:48Z</time>
      </trkpt>
      <trkpt lat="59.3953466" lon="17.9729662">
        <ele>15.999</ele>
        <time>2011-08-28T18:59:53Z</time>
      </trkpt>
      <trkpt lat="59.3953454" lon="17.9726137">
        <ele>16.9604</ele>
        <time>2011-08-28T18:59:59Z</time>
      </trkpt>
      <trkpt lat="59.3953107" lon="17.9723084">
        <ele>17.4412</ele>
        <time>2011-08-28T19:00:05Z</time>
      </trkpt>
      <trkpt lat="59.395231" lon="17.9719749">
        <ele>19.3638</ele>
        <time>2011-08-28T19:00:12Z</time>
      </trkpt>
      <trkpt lat="59.3951673" lon="17.9716871">
        <ele>22.2476</ele>
        <time>2011-08-28T19:00:18Z</time>
      </trkpt>
      <trkpt lat="59.3951435" lon="17.9713742">
        <ele>25.1317</ele>
        <time>2011-08-28T19:00:24Z</time>
      </trkpt>
      <trkpt lat="59.3951879" lon="17.9711208">
        <ele>27.5349</ele>
        <time>2011-08-28T19:00:29Z</time>
      </trkpt>
      <trkpt lat="59.3952689" lon="17.9708939">
        <ele>29.9381</ele>
        <time>2011-08-28T19:00:34Z</time>
      </trkpt>
      <trkpt lat="59.3953655" lon="17.9706803">
        <ele>31.8607</ele>
        <time>2011-08-28T19:00:39Z</time>
      </trkpt>
      <trkpt lat="59.3953759" lon="17.9706344">
        <ele>32.3416</ele>
        <time>2011-08-28T19:00:40Z</time>
      </trkpt>
      <trkpt lat="59.395421" lon="17.9702524">
        <ele>35.2255</ele>
        <time>2011-08-28T19:00:47Z</time>
      </trkpt>
      <trkpt lat="59.3954828" lon="17.9700533">
        <ele>36.1868</ele>
        <time>2011-08-28T19:00:51Z</time>
      </trkpt>
      <trkpt lat="59.3955911" lon="17.96981">
        <ele>36.6675</ele>
        <time>2011-08-28T19:00:57Z</time>
      </trkpt>
      <trkpt lat="59.3956604" lon="17.9696876">
        <ele>36.6675</ele>
        <time>2011-08-28T19:01:01Z</time>
      </trkpt>
      <trkpt lat="59.3957462" lon="17.9694288">
        <ele>38.1094</ele>
        <time>2011-08-28T19:01:08Z</time>
      </trkpt>
      <trkpt lat="59.3957325" lon="17.9692186">
        <ele>39.5513</ele>
        <time>2011-08-28T19:01:13Z</time>
      </trkpt>
      <trkpt lat="59.3957531" lon="17.9690112">
        <ele>40.5128</ele>
        <time>2011-08-28T19:01:17Z</time>
      </trkpt>
      <trkpt lat="59.3958163" lon="17.9688297">
        <ele>40.9934</ele>
        <time>2011-08-28T19:01:22Z</time>
      </trkpt>
      <trkpt lat="59.3958344" lon="17.9687819">
        <ele>41.474</ele>
        <time>2011-08-28T19:01:23Z</time>
      </trkpt>
      <trkpt lat="59.3959827" lon="17.9684463">
        <ele>40.5128</ele>
        <time>2011-08-28T19:01:31Z</time>
      </trkpt>
      <trkpt lat="59.396025" lon="17.9682384">
        <ele>40.9934</ele>
        <time>2011-08-28T19:01:35Z</time>
      </trkpt>
      <trkpt lat="59.396064" lon="17.9679815">
        <ele>42.4354</ele>
        <time>2011-08-28T19:01:40Z</time>
      </trkpt>
      <trkpt lat="59.3961392" lon="17.9678046">
        <ele>42.4354</ele>
        <time>2011-08-28T19:01:44Z</time>
      </trkpt>
      <trkpt lat="59.3962275" lon="17.967632">
        <ele>40.9934</ele>
        <time>2011-08-28T19:01:48Z</time>
      </trkpt>
      <trkpt lat="59.3963226" lon="17.9674681">
        <ele>40.0321</ele>
        <time>2011-08-28T19:01:53Z</time>
      </trkpt>
      <trkpt lat="59.3963634" lon="17.9673279">
        <ele>40.0321</ele>
        <time>2011-08-28T19:01:56Z</time>
      </trkpt>
      <trkpt lat="59.3964658" lon="17.9670594">
        <ele>40.5128</ele>
        <time>2011-08-28T19:02:02Z</time>
      </trkpt>
      <trkpt lat="59.3964818" lon="17.9670098">
        <ele>40.5128</ele>
        <time>2011-08-28T19:02:03Z</time>
      </trkpt>
      <trkpt lat="59.3965504" lon="17.9667589">
        <ele>41.9547</ele>
        <time>2011-08-28T19:02:08Z</time>
      </trkpt>
      <trkpt lat="59.3966441" lon="17.9665061">
        <ele>43.8773</ele>
        <time>2011-08-28T19:02:13Z</time>
      </trkpt>
      <trkpt lat="59.396755" lon="17.9664337">
        <ele>45.3192</ele>
        <time>2011-08-28T19:02:17Z</time>
      </trkpt>
      <trkpt lat="59.3968484" lon="17.9664264">
        <ele>45.7999</ele>
        <time>2011-08-28T19:02:20Z</time>
      </trkpt>
      <trkpt lat="59.3968981" lon="17.9664109">
        <ele>45.7999</ele>
        <time>2011-08-28T19:02:22Z</time>
      </trkpt>
      <trkpt lat="59.396927" lon="17.9664002">
        <ele>45.3192</ele>
        <time>2011-08-28T19:02:23Z</time>
      </trkpt>
      <trkpt lat="59.3970117" lon="17.966487">
        <ele>45.7999</ele>
        <time>2011-08-28T19:02:27Z</time>
      </trkpt>
      <trkpt lat="59.3970648" lon="17.9666585">
        <ele>41.474</ele>
        <time>2011-08-28T19:02:32Z</time>
      </trkpt>
      <trkpt lat="59.3971689" lon="17.9668983">
        <ele>39.0707</ele>
        <time>2011-08-28T19:02:36Z</time>
      </trkpt>
      <trkpt lat="59.3972956" lon="17.9672438">
        <ele>33.3029</ele>
        <time>2011-08-28T19:02:41Z</time>
      </trkpt>
      <trkpt lat="59.3973916" lon="17.9675732">
        <ele>31.3801</ele>
        <time>2011-08-28T19:02:47Z</time>
      </trkpt>
      <trkpt lat="59.3974605" lon="17.9678722">
        <ele>28.9769</ele>
        <time>2011-08-28T19:02:52Z</time>
      </trkpt>
      <trkpt lat="59.3975189" lon="17.9681143">
        <ele>27.5349</ele>
        <time>2011-08-28T19:02:56Z</time>
      </trkpt>
      <trkpt lat="59.3976102" lon="17.9684757">
        <ele>24.651</ele>
        <time>2011-08-28T19:03:02Z</time>
      </trkpt>
      <trkpt lat="59.3976621" lon="17.9687431">
        <ele>23.209</ele>
        <time>2011-08-28T19:03:07Z</time>
      </trkpt>
      <trkpt lat="59.3977568" lon="17.9688779">
        <ele>23.209</ele>
        <time>2011-08-28T19:03:11Z</time>
      </trkpt>
      <trkpt lat="59.3978843" lon="17.9689348">
        <ele>24.651</ele>
        <time>2011-08-28T19:03:16Z</time>
      </trkpt>
      <trkpt lat="59.3980335" lon="17.9688906">
        <ele>30.4188</ele>
        <time>2011-08-28T19:03:22Z</time>
      </trkpt>
      <trkpt lat="59.3981211" lon="17.9688172">
        <ele>32.3416</ele>
        <time>2011-08-28T19:03:26Z</time>
      </trkpt>
      <trkpt lat="59.3982086" lon="17.9687436">
        <ele>32.8223</ele>
        <time>2011-08-28T19:03:31Z</time>
      </trkpt>
      <trkpt lat="59.3983532" lon="17.9686616">
        <ele>36.1868</ele>
        <time>2011-08-28T19:03:37Z</time>
      </trkpt>
      <trkpt lat="59.3984551" lon="17.9686867">
        <ele>39.5513</ele>
        <time>2011-08-28T19:03:41Z</time>
      </trkpt>
      <trkpt lat="59.398588" lon="17.9686896">
        <ele>41.9547</ele>
        <time>2011-08-28T19:03:46Z</time>
      </trkpt>
      <trkpt lat="59.398708" lon="17.9687079">
        <ele>44.8386</ele>
        <time>2011-08-28T19:03:50Z</time>
      </trkpt>
      <trkpt lat="59.3988425" lon="17.9687105">
        <ele>45.3192</ele>
        <time>2011-08-28T19:03:55Z</time>
      </trkpt>
      <trkpt lat="59.3989549" lon="17.9686678">
        <ele>45.3192</ele>
        <time>2011-08-28T19:04:00Z</time>
      </trkpt>
      <trkpt lat="59.3990745" lon="17.9685508">
        <ele>45.3192</ele>
        <time>2011-08-28T19:04:05Z</time>
      </trkpt>
      <trkpt lat="59.3991753" lon="17.9684318">
        <ele>43.3966</ele>
        <time>2011-08-28T19:04:10Z</time>
      </trkpt>
      <trkpt lat="59.3992449" lon="17.9682961">
        <ele>42.4354</ele>
        <time>2011-08-28T19:04:14Z</time>
      </trkpt>
      <trkpt lat="59.399286" lon="17.9680967">
        <ele>41.9547</ele>
        <time>2011-08-28T19:04:18Z</time>
      </trkpt>
      <trkpt lat="59.3993449" lon="17.9678443">
        <ele>40.0321</ele>
        <time>2011-08-28T19:04:23Z</time>
      </trkpt>
      <trkpt lat="59.3994063" lon="17.967622">
        <ele>36.6675</ele>
        <time>2011-08-28T19:04:27Z</time>
      </trkpt>
      <trkpt lat="59.3995146" lon="17.9673405">
        <ele>32.3416</ele>
        <time>2011-08-28T19:04:32Z</time>
      </trkpt>
      <trkpt lat="59.3996046" lon="17.9671814">
        <ele>29.9381</ele>
        <time>2011-08-28T19:04:36Z</time>
      </trkpt>
      <trkpt lat="59.399628" lon="17.9671435">
        <ele>29.9381</ele>
        <time>2011-08-28T19:04:37Z</time>
      </trkpt>
      <trkpt lat="59.3996165" lon="17.966929">
        <ele>28.0155</ele>
        <time>2011-08-28T19:04:42Z</time>
      </trkpt>
      <trkpt lat="59.3995379" lon="17.9669622">
        <ele>28.0155</ele>
        <time>2011-08-28T19:04:45Z</time>
      </trkpt>
      <trkpt lat="59.3993637" lon="17.9671456">
        <ele>28.4962</ele>
        <time>2011-08-28T19:04:51Z</time>
      </trkpt>
      <trkpt lat="59.3992379" lon="17.9672906">
        <ele>27.5349</ele>
        <time>2011-08-28T19:04:56Z</time>
      </trkpt>
      <trkpt lat="59.3990332" lon="17.9674205">
        <ele>21.2864</ele>
        <time>2011-08-28T19:05:03Z</time>
      </trkpt>
      <trkpt lat="59.3988817" lon="17.9674911">
        <ele>17.9218</ele>
        <time>2011-08-28T19:05:08Z</time>
      </trkpt>
      <trkpt lat="59.3987525" lon="17.9673699">
        <ele>14.557</ele>
        <time>2011-08-28T19:05:13Z</time>
      </trkpt>
      <trkpt lat="59.3986665" lon="17.9672399">
        <ele>12.6344</ele>
        <time>2011-08-28T19:05:16Z</time>
      </trkpt>
      <trkpt lat="59.3985287" lon="17.9669622">
        <ele>10.7118</ele>
        <time>2011-08-28T19:05:22Z</time>
      </trkpt>
      <trkpt lat="59.3983948" lon="17.9666377">
        <ele>15.5184</ele>
        <time>2011-08-28T19:05:28Z</time>
      </trkpt>
      <trkpt lat="59.3982883" lon="17.9663847">
        <ele>20.325</ele>
        <time>2011-08-28T19:05:33Z</time>
      </trkpt>
      <trkpt lat="59.3981928" lon="17.9661613">
        <ele>21.2864</ele>
        <time>2011-08-28T19:05:38Z</time>
      </trkpt>
      <trkpt lat="59.3981498" lon="17.966086">
        <ele>21.767</ele>
        <time>2011-08-28T19:05:40Z</time>
      </trkpt>
      <trkpt lat="59.3980721" lon="17.965881">
        <ele>23.6896</ele>
        <time>2011-08-28T19:05:46Z</time>
      </trkpt>
      <trkpt lat="59.3980009" lon="17.9659147">
        <ele>24.651</ele>
        <time>2011-08-28T19:05:49Z</time>
      </trkpt>
      <trkpt lat="59.3978604" lon="17.9659617">
        <ele>26.0929</ele>
        <time>2011-08-28T19:05:55Z</time>
      </trkpt>
      <trkpt lat="59.3977792" lon="17.9659024">
        <ele>27.5349</ele>
        <time>2011-08-28T19:05:59Z</time>
      </trkpt>
      <trkpt lat="59.3977034" lon="17.9658484">
        <ele>30.4188</ele>
        <time>2011-08-28T19:06:04Z</time>
      </trkpt>
      <trkpt lat="59.3976875" lon="17.965834">
        <ele>31.3801</ele>
        <time>2011-08-28T19:06:05Z</time>
      </trkpt>
      <trkpt lat="59.3976157" lon="17.965776">
        <ele>32.3416</ele>
        <time>2011-08-28T19:06:10Z</time>
      </trkpt>
      <trkpt lat="59.3975832" lon="17.9656853">
        <ele>33.7834</ele>
        <time>2011-08-28T19:06:14Z</time>
      </trkpt>
      <trkpt lat="59.3975121" lon="17.9655827">
        <ele>34.7449</ele>
        <time>2011-08-28T19:06:19Z</time>
      </trkpt>
      <trkpt lat="59.3974446" lon="17.965316">
        <ele>36.1868</ele>
        <time>2011-08-28T19:06:26Z</time>
      </trkpt>
      <trkpt lat="59.3973666" lon="17.9651781">
        <ele>35.7061</ele>
        <time>2011-08-28T19:06:30Z</time>
      </trkpt>
      <trkpt lat="59.3972509" lon="17.9650228">
        <ele>33.7834</ele>
        <time>2011-08-28T19:06:35Z</time>
      </trkpt>
      <trkpt lat="59.3971635" lon="17.9647998">
        <ele>34.2642</ele>
        <time>2011-08-28T19:06:40Z</time>
      </trkpt>
      <trkpt lat="59.3970898" lon="17.9645384">
        <ele>33.7834</ele>
        <time>2011-08-28T19:06:45Z</time>
      </trkpt>
      <trkpt lat="59.3970612" lon="17.9644317">
        <ele>33.3029</ele>
        <time>2011-08-28T19:06:47Z</time>
      </trkpt>
      <trkpt lat="59.397057" lon="17.9642151">
        <ele>31.8607</ele>
        <time>2011-08-28T19:06:51Z</time>
      </trkpt>
      <trkpt lat="59.3970734" lon="17.9640058">
        <ele>32.3416</ele>
        <time>2011-08-28T19:06:55Z</time>
      </trkpt>
      <trkpt lat="59.3970441" lon="17.9637832">
        <ele>31.3801</ele>
        <time>2011-08-28T19:06:59Z</time>
      </trkpt>
      <trkpt lat="59.3970565" lon="17.9636227">
        <ele>31.3801</ele>
        <time>2011-08-28T19:07:02Z</time>
      </trkpt>
      <trkpt lat="59.3971705" lon="17.9633325">
        <ele>31.3801</ele>
        <time>2011-08-28T19:07:08Z</time>
      </trkpt>
      <trkpt lat="59.3972274" lon="17.9631828">
        <ele>32.3416</ele>
        <time>2011-08-28T19:07:11Z</time>
      </trkpt>
      <trkpt lat="59.3972771" lon="17.9629646">
        <ele>32.3416</ele>
        <time>2011-08-28T19:07:15Z</time>
      </trkpt>
      <trkpt lat="59.3973166" lon="17.9626934">
        <ele>33.7834</ele>
        <time>2011-08-28T19:07:20Z</time>
      </trkpt>
      <trkpt lat="59.3974071" lon="17.9624907">
        <ele>36.6675</ele>
        <time>2011-08-28T19:07:25Z</time>
      </trkpt>
      <trkpt lat="59.3974859" lon="17.9623855">
        <ele>39.0707</ele>
        <time>2011-08-28T19:07:29Z</time>
      </trkpt>
      <trkpt lat="59.3975876" lon="17.9622426">
        <ele>39.0707</ele>
        <time>2011-08-28T19:07:35Z</time>
      </trkpt>
      <trkpt lat="59.3976449" lon="17.9621379">
        <ele>40.5128</ele>
        <time>2011-08-28T19:07:39Z</time>
      </trkpt>
      <trkpt lat="59.3976688" lon="17.962008">
        <ele>41.474</ele>
        <time>2011-08-28T19:07:42Z</time>
      </trkpt>
      <trkpt lat="59.397729" lon="17.9618655">
        <ele>43.3966</ele>
        <time>2011-08-28T19:07:46Z</time>
      </trkpt>
      <trkpt lat="59.3977447" lon="17.9618386">
        <ele>43.3966</ele>
        <time>2011-08-28T19:07:47Z</time>
      </trkpt>
      <trkpt lat="59.3977575" lon="17.9617995">
        <ele>43.3966</ele>
        <time>2011-08-28T19:07:48Z</time>
      </trkpt>
      <trkpt lat="59.3978585" lon="17.9616292">
        <ele>44.358</ele>
        <time>2011-08-28T19:07:53Z</time>
      </trkpt>
      <trkpt lat="59.3979226" lon="17.9615877">
        <ele>44.8386</ele>
        <time>2011-08-28T19:07:56Z</time>
      </trkpt>
      <trkpt lat="59.3979879" lon="17.9614429">
        <ele>44.8386</ele>
        <time>2011-08-28T19:08:00Z</time>
      </trkpt>
      <trkpt lat="59.3980748" lon="17.9613688">
        <ele>45.3192</ele>
        <time>2011-08-28T19:08:04Z</time>
      </trkpt>
      <trkpt lat="59.3981692" lon="17.9611968">
        <ele>45.7999</ele>
        <time>2011-08-28T19:08:09Z</time>
      </trkpt>
      <trkpt lat="59.3981443" lon="17.9610637">
        <ele>46.2806</ele>
        <time>2011-08-28T19:08:12Z</time>
      </trkpt>
      <trkpt lat="59.3980563" lon="17.9607158">
        <ele>46.2806</ele>
        <time>2011-08-28T19:08:19Z</time>
      </trkpt>
      <trkpt lat="59.3979977" lon="17.9604287">
        <ele>45.3192</ele>
        <time>2011-08-28T19:08:24Z</time>
      </trkpt>
      <trkpt lat="59.3979433" lon="17.9601618">
        <ele>45.3192</ele>
        <time>2011-08-28T19:08:28Z</time>
      </trkpt>
      <trkpt lat="59.3978832" lon="17.9598604">
        <ele>44.8386</ele>
        <time>2011-08-28T19:08:33Z</time>
      </trkpt>
      <trkpt lat="59.397818" lon="17.9595908">
        <ele>44.358</ele>
        <time>2011-08-28T19:08:38Z</time>
      </trkpt>
      <trkpt lat="59.3977346" lon="17.9593926">
        <ele>43.3966</ele>
        <time>2011-08-28T19:08:42Z</time>
      </trkpt>
      <trkpt lat="59.3976351" lon="17.9591979">
        <ele>42.4354</ele>
        <time>2011-08-28T19:08:46Z</time>
      </trkpt>
      <trkpt lat="59.3975574" lon="17.9589917">
        <ele>40.5128</ele>
        <time>2011-08-28T19:08:50Z</time>
      </trkpt>
      <trkpt lat="59.3974455" lon="17.9588232">
        <ele>37.6287</ele>
        <time>2011-08-28T19:08:55Z</time>
      </trkpt>
      <trkpt lat="59.3972705" lon="17.9585994">
        <ele>32.3416</ele>
        <time>2011-08-28T19:09:01Z</time>
      </trkpt>
      <trkpt lat="59.3971797" lon="17.958354">
        <ele>29.4575</ele>
        <time>2011-08-28T19:09:06Z</time>
      </trkpt>
      <trkpt lat="59.3971036" lon="17.9581021">
        <ele>27.0543</ele>
        <time>2011-08-28T19:09:10Z</time>
      </trkpt>
      <trkpt lat="59.3970299" lon="17.9578132">
        <ele>24.651</ele>
        <time>2011-08-28T19:09:15Z</time>
      </trkpt>
      <trkpt lat="59.3969367" lon="17.9575991">
        <ele>21.2864</ele>
        <time>2011-08-28T19:09:19Z</time>
      </trkpt>
      <trkpt lat="59.3968176" lon="17.9573847">
        <ele>17.9218</ele>
        <time>2011-08-28T19:09:23Z</time>
      </trkpt>
      <trkpt lat="59.3967146" lon="17.9572336">
        <ele>17.4412</ele>
        <time>2011-08-28T19:09:27Z</time>
      </trkpt>
      <trkpt lat="59.3966229" lon="17.9570392">
        <ele>15.999</ele>
        <time>2011-08-28T19:09:31Z</time>
      </trkpt>
      <trkpt lat="59.3965007" lon="17.9568013">
        <ele>14.557</ele>
        <time>2011-08-28T19:09:36Z</time>
      </trkpt>
      <trkpt lat="59.3964379" lon="17.9565723">
        <ele>15.0377</ele>
        <time>2011-08-28T19:09:40Z</time>
      </trkpt>
      <trkpt lat="59.3964104" lon="17.9562887">
        <ele>18.4023</ele>
        <time>2011-08-28T19:09:45Z</time>
      </trkpt>
      <trkpt lat="59.396526" lon="17.9559742">
        <ele>20.8057</ele>
        <time>2011-08-28T19:09:52Z</time>
      </trkpt>
      <trkpt lat="59.3964675" lon="17.9557421">
        <ele>22.2476</ele>
        <time>2011-08-28T19:09:57Z</time>
      </trkpt>
      <trkpt lat="59.3963121" lon="17.9556777">
        <ele>21.2864</ele>
        <time>2011-08-28T19:10:02Z</time>
      </trkpt>
      <trkpt lat="59.3961686" lon="17.9557586">
        <ele>19.3638</ele>
        <time>2011-08-28T19:10:07Z</time>
      </trkpt>
      <trkpt lat="59.3960812" lon="17.9558823">
        <ele>17.9218</ele>
        <time>2011-08-28T19:10:12Z</time>
      </trkpt>
      <trkpt lat="59.3960811" lon="17.9560374">
        <ele>19.8444</ele>
        <time>2011-08-28T19:10:16Z</time>
      </trkpt>
      <trkpt lat="59.3960926" lon="17.9561073">
        <ele>20.325</ele>
        <time>2011-08-28T19:10:18Z</time>
      </trkpt>
      <trkpt lat="59.3961299" lon="17.9563623">
        <ele>21.767</ele>
        <time>2011-08-28T19:10:23Z</time>
      </trkpt>
      <trkpt lat="59.3960654" lon="17.9565823">
        <ele>24.1703</ele>
        <time>2011-08-28T19:10:28Z</time>
      </trkpt>
      <trkpt lat="59.396011" lon="17.9566174">
        <ele>22.2476</ele>
        <time>2011-08-28T19:10:30Z</time>
      </trkpt>
      <trkpt lat="59.3958723" lon="17.9568185">
        <ele>21.767</ele>
        <time>2011-08-28T19:10:36Z</time>
      </trkpt>
      <trkpt lat="59.3957775" lon="17.9568547">
        <ele>21.2864</ele>
        <time>2011-08-28T19:10:40Z</time>
      </trkpt>
      <trkpt lat="59.3956688" lon="17.9570744">
        <ele>18.4023</ele>
        <time>2011-08-28T19:10:45Z</time>
      </trkpt>
      <trkpt lat="59.3955553" lon="17.957051">
        <ele>17.9218</ele>
        <time>2011-08-28T19:10:48Z</time>
      </trkpt>
      <trkpt lat="59.3954729" lon="17.9568945">
        <ele>18.4023</ele>
        <time>2011-08-28T19:10:51Z</time>
      </trkpt>
      <trkpt lat="59.3953784" lon="17.9567366">
        <ele>17.9218</ele>
        <time>2011-08-28T19:10:55Z</time>
      </trkpt>
      <trkpt lat="59.3953194" lon="17.9567039">
        <ele>16.9604</ele>
        <time>2011-08-28T19:10:57Z</time>
      </trkpt>
      <trkpt lat="59.3950963" lon="17.9565086">
        <ele>15.5184</ele>
        <time>2011-08-28T19:11:04Z</time>
      </trkpt>
      <trkpt lat="59.3949715" lon="17.9563501">
        <ele>15.5184</ele>
        <time>2011-08-28T19:11:08Z</time>
      </trkpt>
      <trkpt lat="59.3948299" lon="17.9562901">
        <ele>15.999</ele>
        <time>2011-08-28T19:11:12Z</time>
      </trkpt>
      <trkpt lat="59.394659" lon="17.9562589">
        <ele>17.4412</ele>
        <time>2011-08-28T19:11:17Z</time>
      </trkpt>
      <trkpt lat="59.3944939" lon="17.9562238">
        <ele>13.1151</ele>
        <time>2011-08-28T19:11:22Z</time>
      </trkpt>
      <trkpt lat="59.3942531" lon="17.9562003">
        <ele>9.2699</ele>
        <time>2011-08-28T19:11:28Z</time>
      </trkpt>
      <trkpt lat="59.3940504" lon="17.9561875">
        <ele>7.34717</ele>
        <time>2011-08-28T19:11:33Z</time>
      </trkpt>
      <trkpt lat="59.3938526" lon="17.956183">
        <ele>9.2699</ele>
        <time>2011-08-28T19:11:38Z</time>
      </trkpt>
      <trkpt lat="59.3936268" lon="17.9561607">
        <ele>10.7118</ele>
        <time>2011-08-28T19:11:44Z</time>
      </trkpt>
      <trkpt lat="59.3934479" lon="17.9561651">
        <ele>12.6344</ele>
        <time>2011-08-28T19:11:49Z</time>
      </trkpt>
      <trkpt lat="59.3933207" lon="17.9562001">
        <ele>14.0764</ele>
        <time>2011-08-28T19:11:53Z</time>
      </trkpt>
      <trkpt lat="59.393123" lon="17.9562721">
        <ele>14.0764</ele>
        <time>2011-08-28T19:11:59Z</time>
      </trkpt>
      <trkpt lat="59.3929548" lon="17.9564089">
        <ele>15.999</ele>
        <time>2011-08-28T19:12:04Z</time>
      </trkpt>
      <trkpt lat="59.3928248" lon="17.9564756">
        <ele>15.999</ele>
        <time>2011-08-28T19:12:08Z</time>
      </trkpt>
      <trkpt lat="59.3926839" lon="17.9563782">
        <ele>16.4797</ele>
        <time>2011-08-28T19:12:12Z</time>
      </trkpt>
      <trkpt lat="59.3926047" lon="17.9560724">
        <ele>15.5184</ele>
        <time>2011-08-28T19:12:17Z</time>
      </trkpt>
      <trkpt lat="59.3926047" lon="17.9560089">
        <ele>15.5184</ele>
        <time>2011-08-28T19:12:18Z</time>
      </trkpt>
      <trkpt lat="59.3926022" lon="17.9556287">
        <ele>15.0377</ele>
        <time>2011-08-28T19:12:24Z</time>
      </trkpt>
      <trkpt lat="59.3925706" lon="17.9554391">
        <ele>14.0764</ele>
        <time>2011-08-28T19:12:27Z</time>
      </trkpt>
      <trkpt lat="59.3925597" lon="17.955377">
        <ele>14.0764</ele>
        <time>2011-08-28T19:12:28Z</time>
      </trkpt>
      <trkpt lat="59.392546" lon="17.9552339">
        <ele>14.557</ele>
        <time>2011-08-28T19:12:30Z</time>
      </trkpt>
      <trkpt lat="59.3925726" lon="17.9548656">
        <ele>13.5958</ele>
        <time>2011-08-28T19:12:35Z</time>
      </trkpt>
      <trkpt lat="59.3925928" lon="17.9547345">
        <ele>12.6344</ele>
        <time>2011-08-28T19:12:37Z</time>
      </trkpt>
      <trkpt lat="59.3926776" lon="17.9543389">
        <ele>10.2312</ele>
        <time>2011-08-28T19:12:43Z</time>
      </trkpt>
      <trkpt lat="59.3927187" lon="17.9541361">
        <ele>10.2312</ele>
        <time>2011-08-28T19:12:46Z</time>
      </trkpt>
      <trkpt lat="59.3927877" lon="17.9537318">
        <ele>11.1925</ele>
        <time>2011-08-28T19:12:52Z</time>
      </trkpt>
      <trkpt lat="59.3928196" lon="17.9533949">
        <ele>14.557</ele>
        <time>2011-08-28T19:12:57Z</time>
      </trkpt>
      <trkpt lat="59.3928557" lon="17.9529846">
        <ele>15.5184</ele>
        <time>2011-08-28T19:13:03Z</time>
      </trkpt>
      <trkpt lat="59.392906" lon="17.9525945">
        <ele>16.4797</ele>
        <time>2011-08-28T19:13:09Z</time>
      </trkpt>
      <trkpt lat="59.3929036" lon="17.9523234">
        <ele>16.9604</ele>
        <time>2011-08-28T19:13:13Z</time>
      </trkpt>
      <trkpt lat="59.3928956" lon="17.9522703">
        <ele>16.9604</ele>
        <time>2011-08-28T19:13:14Z</time>
      </trkpt>
      <trkpt lat="59.3927928" lon="17.9520746">
        <ele>15.999</ele>
        <time>2011-08-28T19:13:19Z</time>
      </trkpt>
      <trkpt lat="59.3926266" lon="17.95186">
        <ele>15.0377</ele>
        <time>2011-08-28T19:13:25Z</time>
      </trkpt>
      <trkpt lat="59.3925372" lon="17.9517005">
        <ele>15.5184</ele>
        <time>2011-08-28T19:13:29Z</time>
      </trkpt>
      <trkpt lat="59.3924426" lon="17.9514436">
        <ele>15.999</ele>
        <time>2011-08-28T19:13:34Z</time>
      </trkpt>
      <trkpt lat="59.3923607" lon="17.951238">
        <ele>15.5184</ele>
        <time>2011-08-28T19:13:38Z</time>
      </trkpt>
      <trkpt lat="59.3922875" lon="17.9509638">
        <ele>17.4412</ele>
        <time>2011-08-28T19:13:44Z</time>
      </trkpt>
      <trkpt lat="59.3922091" lon="17.9507602">
        <ele>17.4412</ele>
        <time>2011-08-28T19:13:49Z</time>
      </trkpt>
      <trkpt lat="59.3920856" lon="17.9505904">
        <ele>15.5184</ele>
        <time>2011-08-28T19:13:54Z</time>
      </trkpt>
      <trkpt lat="59.3919951" lon="17.9505613">
        <ele>14.557</ele>
        <time>2011-08-28T19:13:58Z</time>
      </trkpt>
      <trkpt lat="59.3918767" lon="17.9505994">
        <ele>15.5184</ele>
        <time>2011-08-28T19:14:03Z</time>
      </trkpt>
      <trkpt lat="59.3918032" lon="17.9506672">
        <ele>15.5184</ele>
        <time>2011-08-28T19:14:06Z</time>
      </trkpt>
      <trkpt lat="59.3916819" lon="17.9507034">
        <ele>15.0377</ele>
        <time>2011-08-28T19:14:11Z</time>
      </trkpt>
      <trkpt lat="59.3916633" lon="17.9507136">
        <ele>14.557</ele>
        <time>2011-08-28T19:14:12Z</time>
      </trkpt>
      <trkpt lat="59.391578" lon="17.9506931">
        <ele>12.6344</ele>
        <time>2011-08-28T19:14:16Z</time>
      </trkpt>
      <trkpt lat="59.3913993" lon="17.9505823">
        <ele>7.34717</ele>
        <time>2011-08-28T19:14:23Z</time>
      </trkpt>
      <trkpt lat="59.3912634" lon="17.9505532">
        <ele>9.75061</ele>
        <time>2011-08-28T19:14:28Z</time>
      </trkpt>
      <trkpt lat="59.3911507" lon="17.9505775">
        <ele>7.34717</ele>
        <time>2011-08-28T19:14:33Z</time>
      </trkpt>
      <trkpt lat="59.3910398" lon="17.9506129">
        <ele>6.86646</ele>
        <time>2011-08-28T19:14:38Z</time>
      </trkpt>
      <trkpt lat="59.3908997" lon="17.9507336">
        <ele>10.2312</ele>
        <time>2011-08-28T19:14:44Z</time>
      </trkpt>
      <trkpt lat="59.3907839" lon="17.950849">
        <ele>14.0764</ele>
        <time>2011-08-28T19:14:49Z</time>
      </trkpt>
      <trkpt lat="59.3906756" lon="17.9508714">
        <ele>11.6732</ele>
        <time>2011-08-28T19:14:54Z</time>
      </trkpt>
      <trkpt lat="59.3905559" lon="17.9508967">
        <ele>12.6344</ele>
        <time>2011-08-28T19:14:59Z</time>
      </trkpt>
      <trkpt lat="59.3904406" lon="17.9510035">
        <ele>17.9218</ele>
        <time>2011-08-28T19:15:04Z</time>
      </trkpt>
      <trkpt lat="59.390338" lon="17.9512016">
        <ele>22.2476</ele>
        <time>2011-08-28T19:15:09Z</time>
      </trkpt>
      <trkpt lat="59.3902856" lon="17.9514374">
        <ele>27.0543</ele>
        <time>2011-08-28T19:15:14Z</time>
      </trkpt>
      <trkpt lat="59.390227" lon="17.951684">
        <ele>31.8607</ele>
        <time>2011-08-28T19:15:20Z</time>
      </trkpt>
      <trkpt lat="59.3901929" lon="17.9519098">
        <ele>34.2642</ele>
        <time>2011-08-28T19:15:24Z</time>
      </trkpt>
      <trkpt lat="59.390155" lon="17.9521979">
        <ele>37.6287</ele>
        <time>2011-08-28T19:15:29Z</time>
      </trkpt>
      <trkpt lat="59.3901183" lon="17.9524522">
        <ele>38.1094</ele>
        <time>2011-08-28T19:15:34Z</time>
      </trkpt>
      <trkpt lat="59.3901555" lon="17.9526447">
        <ele>40.9934</ele>
        <time>2011-08-28T19:15:38Z</time>
      </trkpt>
      <trkpt lat="59.3901808" lon="17.9528817">
        <ele>39.5513</ele>
        <time>2011-08-28T19:15:43Z</time>
      </trkpt>
      <trkpt lat="59.3902038" lon="17.9530779">
        <ele>36.6675</ele>
        <time>2011-08-28T19:15:48Z</time>
      </trkpt>
      <trkpt lat="59.3902224" lon="17.9531619">
        <ele>36.1868</ele>
        <time>2011-08-28T19:15:50Z</time>
      </trkpt>
      <trkpt lat="59.3902595" lon="17.9533863">
        <ele>34.2642</ele>
        <time>2011-08-28T19:15:55Z</time>
      </trkpt>
      <trkpt lat="59.3902753" lon="17.9534649">
        <ele>33.7834</ele>
        <time>2011-08-28T19:15:57Z</time>
      </trkpt>
      <trkpt lat="59.3903492" lon="17.9536317">
        <ele>33.7834</ele>
        <time>2011-08-28T19:16:02Z</time>
      </trkpt>
      <trkpt lat="59.3905316" lon="17.9539161">
        <ele>37.1481</ele>
        <time>2011-08-28T19:16:10Z</time>
      </trkpt>
      <trkpt lat="59.3906082" lon="17.9541713">
        <ele>38.1094</ele>
        <time>2011-08-28T19:16:14Z</time>
      </trkpt>
      <trkpt lat="59.3906498" lon="17.9544365">
        <ele>37.1481</ele>
        <time>2011-08-28T19:16:18Z</time>
      </trkpt>
      <trkpt lat="59.3906703" lon="17.9547499">
        <ele>37.6287</ele>
        <time>2011-08-28T19:16:23Z</time>
      </trkpt>
      <trkpt lat="59.3906283" lon="17.9550396">
        <ele>38.5901</ele>
        <time>2011-08-28T19:16:28Z</time>
      </trkpt>
      <trkpt lat="59.3906177" lon="17.9553594">
        <ele>41.474</ele>
        <time>2011-08-28T19:16:33Z</time>
      </trkpt>
      <trkpt lat="59.3906383" lon="17.9556443">
        <ele>42.916</ele>
        <time>2011-08-28T19:16:37Z</time>
      </trkpt>
      <trkpt lat="59.3906736" lon="17.955956">
        <ele>39.5513</ele>
        <time>2011-08-28T19:16:41Z</time>
      </trkpt>
      <trkpt lat="59.390687" lon="17.9562104">
        <ele>38.5901</ele>
        <time>2011-08-28T19:16:45Z</time>
      </trkpt>
      <trkpt lat="59.3906492" lon="17.956474">
        <ele>36.6675</ele>
        <time>2011-08-28T19:16:49Z</time>
      </trkpt>
      <trkpt lat="59.3905219" lon="17.9567009">
        <ele>30.4188</ele>
        <time>2011-08-28T19:16:54Z</time>
      </trkpt>
      <trkpt lat="59.3903755" lon="17.9568952">
        <ele>22.2476</ele>
        <time>2011-08-28T19:16:59Z</time>
      </trkpt>
      <trkpt lat="59.39023" lon="17.957137">
        <ele>18.8831</ele>
        <time>2011-08-28T19:17:04Z</time>
      </trkpt>
      <trkpt lat="59.3901359" lon="17.9573905">
        <ele>16.4797</ele>
        <time>2011-08-28T19:17:09Z</time>
      </trkpt>
      <trkpt lat="59.390026" lon="17.9577302">
        <ele>15.0377</ele>
        <time>2011-08-28T19:17:14Z</time>
      </trkpt>
      <trkpt lat="59.3899136" lon="17.9579512">
        <ele>14.0764</ele>
        <time>2011-08-28T19:17:19Z</time>
      </trkpt>
      <trkpt lat="59.3898285" lon="17.9581317">
        <ele>12.1538</ele>
        <time>2011-08-28T19:17:23Z</time>
      </trkpt>
      <trkpt lat="59.3897141" lon="17.9583322">
        <ele>11.1925</ele>
        <time>2011-08-28T19:17:27Z</time>
      </trkpt>
      <trkpt lat="59.38969" lon="17.9583887">
        <ele>10.7118</ele>
        <time>2011-08-28T19:17:28Z</time>
      </trkpt>
      <trkpt lat="59.3895853" lon="17.9587036">
        <ele>12.6344</ele>
        <time>2011-08-28T19:17:33Z</time>
      </trkpt>
      <trkpt lat="59.3894919" lon="17.9590235">
        <ele>15.999</ele>
        <time>2011-08-28T19:17:38Z</time>
      </trkpt>
      <trkpt lat="59.3893552" lon="17.9592981">
        <ele>15.0377</ele>
        <time>2011-08-28T19:17:43Z</time>
      </trkpt>
      <trkpt lat="59.3892309" lon="17.9595827">
        <ele>17.4412</ele>
        <time>2011-08-28T19:17:48Z</time>
      </trkpt>
      <trkpt lat="59.3891026" lon="17.9599199">
        <ele>21.2864</ele>
        <time>2011-08-28T19:17:54Z</time>
      </trkpt>
      <trkpt lat="59.3890304" lon="17.9601405">
        <ele>21.2864</ele>
        <time>2011-08-28T19:17:58Z</time>
      </trkpt>
      <trkpt lat="59.3889463" lon="17.9605069">
        <ele>20.8057</ele>
        <time>2011-08-28T19:18:04Z</time>
      </trkpt>
      <trkpt lat="59.3888113" lon="17.9607873">
        <ele>20.325</ele>
        <time>2011-08-28T19:18:10Z</time>
      </trkpt>
      <trkpt lat="59.3886887" lon="17.9610019">
        <ele>19.3638</ele>
        <time>2011-08-28T19:18:15Z</time>
      </trkpt>
      <trkpt lat="59.388573" lon="17.961225">
        <ele>18.8831</ele>
        <time>2011-08-28T19:18:20Z</time>
      </trkpt>
      <trkpt lat="59.3884741" lon="17.9615091">
        <ele>22.2476</ele>
        <time>2011-08-28T19:18:26Z</time>
      </trkpt>
      <trkpt lat="59.3883812" lon="17.9618086">
        <ele>23.6896</ele>
        <time>2011-08-28T19:18:32Z</time>
      </trkpt>
      <trkpt lat="59.3882965" lon="17.9620922">
        <ele>25.1317</ele>
        <time>2011-08-28T19:18:38Z</time>
      </trkpt>
      <trkpt lat="59.3882387" lon="17.9624129">
        <ele>28.0155</ele>
        <time>2011-08-28T19:18:45Z</time>
      </trkpt>
      <trkpt lat="59.3882095" lon="17.9625335">
        <ele>27.5349</ele>
        <time>2011-08-28T19:18:48Z</time>
      </trkpt>
      <trkpt lat="59.3880823" lon="17.9627658">
        <ele>23.6896</ele>
        <time>2011-08-28T19:18:55Z</time>
      </trkpt>
      <trkpt lat="59.3880192" lon="17.9628705">
        <ele>24.651</ele>
        <time>2011-08-28T19:18:58Z</time>
      </trkpt>
      <trkpt lat="59.3878975" lon="17.9630529">
        <ele>27.0543</ele>
        <time>2011-08-28T19:19:03Z</time>
      </trkpt>
      <trkpt lat="59.3877502" lon="17.9632297">
        <ele>26.5736</ele>
        <time>2011-08-28T19:19:09Z</time>
      </trkpt>
      <trkpt lat="59.3876369" lon="17.9634017">
        <ele>30.4188</ele>
        <time>2011-08-28T19:19:14Z</time>
      </trkpt>
      <trkpt lat="59.3874869" lon="17.9635759">
        <ele>33.3029</ele>
        <time>2011-08-28T19:19:20Z</time>
      </trkpt>
      <trkpt lat="59.3873588" lon="17.9637232">
        <ele>33.3029</ele>
        <time>2011-08-28T19:19:25Z</time>
      </trkpt>
      <trkpt lat="59.3872739" lon="17.9638403">
        <ele>35.2255</ele>
        <time>2011-08-28T19:19:30Z</time>
      </trkpt>
      <trkpt lat="59.3871567" lon="17.9640052">
        <ele>32.3416</ele>
        <time>2011-08-28T19:19:35Z</time>
      </trkpt>
      <trkpt lat="59.3870097" lon="17.9641696">
        <ele>29.4575</ele>
        <time>2011-08-28T19:19:41Z</time>
      </trkpt>
      <trkpt lat="59.3868606" lon="17.9641581">
        <ele>25.6123</ele>
        <time>2011-08-28T19:19:46Z</time>
      </trkpt>
      <trkpt lat="59.386716" lon="17.9640915">
        <ele>22.2476</ele>
        <time>2011-08-28T19:19:51Z</time>
      </trkpt>
      <trkpt lat="59.3865264" lon="17.9640562">
        <ele>19.3638</ele>
        <time>2011-08-28T19:19:57Z</time>
      </trkpt>
      <trkpt lat="59.386418" lon="17.9638889">
        <ele>17.9218</ele>
        <time>2011-08-28T19:20:01Z</time>
      </trkpt>
      <trkpt lat="59.3863079" lon="17.9636538">
        <ele>15.999</ele>
        <time>2011-08-28T19:20:05Z</time>
      </trkpt>
      <trkpt lat="59.3861963" lon="17.9633723">
        <ele>15.999</ele>
        <time>2011-08-28T19:20:10Z</time>
      </trkpt>
      <trkpt lat="59.3860958" lon="17.9631476">
        <ele>15.0377</ele>
        <time>2011-08-28T19:20:15Z</time>
      </trkpt>
      <trkpt lat="59.385985" lon="17.9629102">
        <ele>15.5184</ele>
        <time>2011-08-28T19:20:21Z</time>
      </trkpt>
      <trkpt lat="59.3859126" lon="17.9627601">
        <ele>14.557</ele>
        <time>2011-08-28T19:20:26Z</time>
      </trkpt>
      <trkpt lat="59.3858552" lon="17.9625876">
        <ele>15.0377</ele>
        <time>2011-08-28T19:20:30Z</time>
      </trkpt>
      <trkpt lat="59.3857852" lon="17.9624593">
        <ele>15.0377</ele>
        <time>2011-08-28T19:20:34Z</time>
      </trkpt>
      <trkpt lat="59.3857395" lon="17.9624161">
        <ele>15.999</ele>
        <time>2011-08-28T19:20:36Z</time>
      </trkpt>
      <trkpt lat="59.3856181" lon="17.9623353">
        <ele>22.2476</ele>
        <time>2011-08-28T19:20:41Z</time>
      </trkpt>
      <trkpt lat="59.3854943" lon="17.962315">
        <ele>25.1317</ele>
        <time>2011-08-28T19:20:46Z</time>
      </trkpt>
      <trkpt lat="59.3854446" lon="17.9622691">
        <ele>25.1317</ele>
        <time>2011-08-28T19:20:48Z</time>
      </trkpt>
      <trkpt lat="59.385337" lon="17.9620426">
        <ele>26.0929</ele>
        <time>2011-08-28T19:20:54Z</time>
      </trkpt>
      <trkpt lat="59.3852465" lon="17.9618142">
        <ele>31.3801</ele>
        <time>2011-08-28T19:20:59Z</time>
      </trkpt>
      <trkpt lat="59.3851962" lon="17.9615752">
        <ele>32.8223</ele>
        <time>2011-08-28T19:21:03Z</time>
      </trkpt>
      <trkpt lat="59.3851671" lon="17.961266">
        <ele>34.7449</ele>
        <time>2011-08-28T19:21:08Z</time>
      </trkpt>
      <trkpt lat="59.3851589" lon="17.9610258">
        <ele>35.7061</ele>
        <time>2011-08-28T19:21:12Z</time>
      </trkpt>
      <trkpt lat="59.3850899" lon="17.960711">
        <ele>36.1868</ele>
        <time>2011-08-28T19:21:17Z</time>
      </trkpt>
      <trkpt lat="59.3850703" lon="17.9605969">
        <ele>36.6675</ele>
        <time>2011-08-28T19:21:19Z</time>
      </trkpt>
      <trkpt lat="59.3850248" lon="17.9603131">
        <ele>36.1868</ele>
        <time>2011-08-28T19:21:24Z</time>
      </trkpt>
      <trkpt lat="59.3850112" lon="17.9599271">
        <ele>35.2255</ele>
        <time>2011-08-28T19:21:30Z</time>
      </trkpt>
      <trkpt lat="59.3849872" lon="17.9596863">
        <ele>35.2255</ele>
        <time>2011-08-28T19:21:34Z</time>
      </trkpt>
      <trkpt lat="59.3849211" lon="17.9594107">
        <ele>35.2255</ele>
        <time>2011-08-28T19:21:39Z</time>
      </trkpt>
      <trkpt lat="59.3848491" lon="17.9590801">
        <ele>36.1868</ele>
        <time>2011-08-28T19:21:46Z</time>
      </trkpt>
      <trkpt lat="59.3847878" lon="17.9588945">
        <ele>36.6675</ele>
        <time>2011-08-28T19:21:50Z</time>
      </trkpt>
      <trkpt lat="59.3846511" lon="17.9587559">
        <ele>36.1868</ele>
        <time>2011-08-28T19:21:57Z</time>
      </trkpt>
      <trkpt lat="59.3845586" lon="17.958874">
        <ele>36.6675</ele>
        <time>2011-08-28T19:22:02Z</time>
      </trkpt>
      <trkpt lat="59.3845279" lon="17.9589687">
        <ele>37.1481</ele>
        <time>2011-08-28T19:22:04Z</time>
      </trkpt>
      <trkpt lat="59.3844253" lon="17.9593106">
        <ele>39.0707</ele>
        <time>2011-08-28T19:22:10Z</time>
      </trkpt>
      <trkpt lat="59.3843762" lon="17.9595712">
        <ele>40.5128</ele>
        <time>2011-08-28T19:22:15Z</time>
      </trkpt>
      <trkpt lat="59.3844202" lon="17.9598506">
        <ele>39.5513</ele>
        <time>2011-08-28T19:22:20Z</time>
      </trkpt>
      <trkpt lat="59.3844775" lon="17.9601681">
        <ele>34.7449</ele>
        <time>2011-08-28T19:22:25Z</time>
      </trkpt>
      <trkpt lat="59.3844922" lon="17.9602255">
        <ele>33.7834</ele>
        <time>2011-08-28T19:22:26Z</time>
      </trkpt>
      <trkpt lat="59.3845259" lon="17.9604125">
        <ele>33.7834</ele>
        <time>2011-08-28T19:22:29Z</time>
      </trkpt>
      <trkpt lat="59.384556" lon="17.9607419">
        <ele>31.3801</ele>
        <time>2011-08-28T19:22:34Z</time>
      </trkpt>
      <trkpt lat="59.3845691" lon="17.9609885">
        <ele>28.9769</ele>
        <time>2011-08-28T19:22:38Z</time>
      </trkpt>
      <trkpt lat="59.3846178" lon="17.9612764">
        <ele>30.4188</ele>
        <time>2011-08-28T19:22:43Z</time>
      </trkpt>
      <trkpt lat="59.3846356" lon="17.9614936">
        <ele>28.4962</ele>
        <time>2011-08-28T19:22:47Z</time>
      </trkpt>
      <trkpt lat="59.3846434" lon="17.9618183">
        <ele>23.209</ele>
        <time>2011-08-28T19:22:52Z</time>
      </trkpt>
      <trkpt lat="59.3846609" lon="17.9620561">
        <ele>19.3638</ele>
        <time>2011-08-28T19:22:56Z</time>
      </trkpt>
      <trkpt lat="59.3846647" lon="17.9623683">
        <ele>15.5184</ele>
        <time>2011-08-28T19:23:01Z</time>
      </trkpt>
      <trkpt lat="59.3847266" lon="17.9627056">
        <ele>20.325</ele>
        <time>2011-08-28T19:23:06Z</time>
      </trkpt>
      <trkpt lat="59.3847853" lon="17.9630474">
        <ele>23.6896</ele>
        <time>2011-08-28T19:23:11Z</time>
      </trkpt>
      <trkpt lat="59.3848194" lon="17.9633921">
        <ele>26.5736</ele>
        <time>2011-08-28T19:23:16Z</time>
      </trkpt>
      <trkpt lat="59.3848544" lon="17.963713">
        <ele>29.9381</ele>
        <time>2011-08-28T19:23:21Z</time>
      </trkpt>
      <trkpt lat="59.3848535" lon="17.9640489">
        <ele>29.4575</ele>
        <time>2011-08-28T19:23:26Z</time>
      </trkpt>
      <trkpt lat="59.3848578" lon="17.9643892">
        <ele>28.9769</ele>
        <time>2011-08-28T19:23:31Z</time>
      </trkpt>
      <trkpt lat="59.3848376" lon="17.9647488">
        <ele>28.0155</ele>
        <time>2011-08-28T19:23:36Z</time>
      </trkpt>
      <trkpt lat="59.3847807" lon="17.9650788">
        <ele>26.5736</ele>
        <time>2011-08-28T19:23:41Z</time>
      </trkpt>
      <trkpt lat="59.3846818" lon="17.9653769">
        <ele>26.0929</ele>
        <time>2011-08-28T19:23:46Z</time>
      </trkpt>
      <trkpt lat="59.3845466" lon="17.965546">
        <ele>25.1317</ele>
        <time>2011-08-28T19:23:51Z</time>
      </trkpt>
      <trkpt lat="59.3844262" lon="17.9657237">
        <ele>25.1317</ele>
        <time>2011-08-28T19:23:56Z</time>
      </trkpt>
      <trkpt lat="59.3843661" lon="17.9658859">
        <ele>25.1317</ele>
        <time>2011-08-28T19:23:59Z</time>
      </trkpt>
      <trkpt lat="59.3843109" lon="17.9660794">
        <ele>26.5736</ele>
        <time>2011-08-28T19:24:03Z</time>
      </trkpt>
      <trkpt lat="59.384227" lon="17.9663287">
        <ele>27.0543</ele>
        <time>2011-08-28T19:24:08Z</time>
      </trkpt>
      <trkpt lat="59.3840938" lon="17.9665689">
        <ele>26.0929</ele>
        <time>2011-08-28T19:24:14Z</time>
      </trkpt>
      <trkpt lat="59.3839985" lon="17.9667327">
        <ele>26.0929</ele>
        <time>2011-08-28T19:24:18Z</time>
      </trkpt>
      <trkpt lat="59.3839021" lon="17.9668699">
        <ele>27.5349</ele>
        <time>2011-08-28T19:24:22Z</time>
      </trkpt>
      <trkpt lat="59.3837979" lon="17.9670907">
        <ele>27.0543</ele>
        <time>2011-08-28T19:24:27Z</time>
      </trkpt>
      <trkpt lat="59.3837451" lon="17.9672835">
        <ele>28.9769</ele>
        <time>2011-08-28T19:24:32Z</time>
      </trkpt>
      <trkpt lat="59.3837191" lon="17.9675214">
        <ele>30.4188</ele>
        <time>2011-08-28T19:24:37Z</time>
      </trkpt>
      <trkpt lat="59.3837012" lon="17.9678459">
        <ele>30.4188</ele>
        <time>2011-08-28T19:24:42Z</time>
      </trkpt>
      <trkpt lat="59.3836448" lon="17.9681786">
        <ele>31.8607</ele>
        <time>2011-08-28T19:24:47Z</time>
      </trkpt>
      <trkpt lat="59.3835758" lon="17.9684338">
        <ele>31.3801</ele>
        <time>2011-08-28T19:24:51Z</time>
      </trkpt>
      <trkpt lat="59.3835493" lon="17.9687036">
        <ele>31.3801</ele>
        <time>2011-08-28T19:24:55Z</time>
      </trkpt>
      <trkpt lat="59.3835271" lon="17.969024">
        <ele>31.3801</ele>
        <time>2011-08-28T19:25:00Z</time>
      </trkpt>
      <trkpt lat="59.3835179" lon="17.969084">
        <ele>30.8995</ele>
        <time>2011-08-28T19:25:01Z</time>
      </trkpt>
      <trkpt lat="59.3833856" lon="17.969182">
        <ele>27.0543</ele>
        <time>2011-08-28T19:25:06Z</time>
      </trkpt>
      <trkpt lat="59.3833095" lon="17.969153">
        <ele>25.6123</ele>
        <time>2011-08-28T19:25:08Z</time>
      </trkpt>
      <trkpt lat="59.3831356" lon="17.9690112">
        <ele>20.8057</ele>
        <time>2011-08-28T19:25:13Z</time>
      </trkpt>
      <trkpt lat="59.3828827" lon="17.9687429">
        <ele>19.8444</ele>
        <time>2011-08-28T19:25:20Z</time>
      </trkpt>
      <trkpt lat="59.3826831" lon="17.9685525">
        <ele>20.8057</ele>
        <time>2011-08-28T19:25:25Z</time>
      </trkpt>
      <trkpt lat="59.3825734" lon="17.968501">
        <ele>21.2864</ele>
        <time>2011-08-28T19:25:28Z</time>
      </trkpt>
      <trkpt lat="59.3824013" lon="17.9685638">
        <ele>20.325</ele>
        <time>2011-08-28T19:25:32Z</time>
      </trkpt>
      <trkpt lat="59.3821731" lon="17.9690041">
        <ele>17.9218</ele>
        <time>2011-08-28T19:25:39Z</time>
      </trkpt>
      <trkpt lat="59.3820295" lon="17.9693284">
        <ele>16.9604</ele>
        <time>2011-08-28T19:25:44Z</time>
      </trkpt>
      <trkpt lat="59.3820053" lon="17.9693854">
        <ele>16.9604</ele>
        <time>2011-08-28T19:25:45Z</time>
      </trkpt>
    </trkseg>
  </trk>
</gpx>